<?xml version="1.0" encoding="UTF-8" standalone="no" ?>
<gpx xmlns="http://www.topografix.com/GPX/1/1" xmlns:xsi="http://www.w3.org/2001/XMLSchema-instance" xsi:schemaLocation="http://www.topografix.com/GPX/1/1 http://www.topografix.com/GPX/1/1/gpx.xsd" version="1.1" creator="VisuGPX - https://www.visugpx.com">
  <metadata>
    <name>CrocoTour</name>
    <desc><![CDATA[Petit tour de vélo ]]></desc>
  </metadata>
  <trk>
    <name><![CDATA[31-JUIL-16 18:30:02]]></name>
    <trkseg>
      <trkpt lat="46.24145" lon="6.01904">
        <ele>404.85</ele>
        <time>2016-07-31T14:59:11Z</time>
      </trkpt>
      <trkpt lat="46.24147" lon="6.01904">
        <ele>405.81</ele>
        <time>2016-07-31T14:59:16Z</time>
      </trkpt>
      <trkpt lat="46.24147" lon="6.01904">
        <ele>405.81</ele>
        <time>2016-07-31T14:59:21Z</time>
      </trkpt>
      <trkpt lat="46.24147" lon="6.01902">
        <ele>405.81</ele>
        <time>2016-07-31T14:59:26Z</time>
      </trkpt>
      <trkpt lat="46.24144" lon="6.01901">
        <ele>405.81</ele>
        <time>2016-07-31T14:59:31Z</time>
      </trkpt>
      <trkpt lat="46.24143" lon="6.01901">
        <ele>405.81</ele>
        <time>2016-07-31T14:59:36Z</time>
      </trkpt>
      <trkpt lat="46.24146" lon="6.01898">
        <ele>405.33</ele>
        <time>2016-07-31T14:59:41Z</time>
      </trkpt>
      <trkpt lat="46.24149" lon="6.01902">
        <ele>405.33</ele>
        <time>2016-07-31T14:59:46Z</time>
      </trkpt>
      <trkpt lat="46.24152" lon="6.01912">
        <ele>405.33</ele>
        <time>2016-07-31T14:59:51Z</time>
      </trkpt>
      <trkpt lat="46.24144" lon="6.01925">
        <ele>405.33</ele>
        <time>2016-07-31T14:59:56Z</time>
      </trkpt>
      <trkpt lat="46.24135" lon="6.01945">
        <ele>403.89</ele>
        <time>2016-07-31T15:00:01Z</time>
      </trkpt>
      <trkpt lat="46.24144" lon="6.01964">
        <ele>404.37</ele>
        <time>2016-07-31T15:00:06Z</time>
      </trkpt>
      <trkpt lat="46.2415" lon="6.01979">
        <ele>404.37</ele>
        <time>2016-07-31T15:00:11Z</time>
      </trkpt>
      <trkpt lat="46.24152" lon="6.01997">
        <ele>403.89</ele>
        <time>2016-07-31T15:00:16Z</time>
      </trkpt>
      <trkpt lat="46.24148" lon="6.02019">
        <ele>403.89</ele>
        <time>2016-07-31T15:00:21Z</time>
      </trkpt>
      <trkpt lat="46.24123" lon="6.02032">
        <ele>402.45</ele>
        <time>2016-07-31T15:00:26Z</time>
      </trkpt>
      <trkpt lat="46.24092" lon="6.02021">
        <ele>401.49</ele>
        <time>2016-07-31T15:00:31Z</time>
      </trkpt>
      <trkpt lat="46.24067" lon="6.02002">
        <ele>401.01</ele>
        <time>2016-07-31T15:00:36Z</time>
      </trkpt>
      <trkpt lat="46.24049" lon="6.02006">
        <ele>401.01</ele>
        <time>2016-07-31T15:00:41Z</time>
      </trkpt>
      <trkpt lat="46.24042" lon="6.02009">
        <ele>400.53</ele>
        <time>2016-07-31T15:00:46Z</time>
      </trkpt>
      <trkpt lat="46.24033" lon="6.01999">
        <ele>400.53</ele>
        <time>2016-07-31T15:00:51Z</time>
      </trkpt>
      <trkpt lat="46.24014" lon="6.01984">
        <ele>400.53</ele>
        <time>2016-07-31T15:00:56Z</time>
      </trkpt>
      <trkpt lat="46.24011" lon="6.0197">
        <ele>400.53</ele>
        <time>2016-07-31T15:01:01Z</time>
      </trkpt>
      <trkpt lat="46.24013" lon="6.01968">
        <ele>400.53</ele>
        <time>2016-07-31T15:01:06Z</time>
      </trkpt>
      <trkpt lat="46.24012" lon="6.01967">
        <ele>400.53</ele>
        <time>2016-07-31T15:01:11Z</time>
      </trkpt>
      <trkpt lat="46.24005" lon="6.01966">
        <ele>400.05</ele>
        <time>2016-07-31T15:01:16Z</time>
      </trkpt>
      <trkpt lat="46.23989" lon="6.01961">
        <ele>400.53</ele>
        <time>2016-07-31T15:01:21Z</time>
      </trkpt>
      <trkpt lat="46.2397" lon="6.01949">
        <ele>400.05</ele>
        <time>2016-07-31T15:01:26Z</time>
      </trkpt>
      <trkpt lat="46.2395" lon="6.01937">
        <ele>399.57</ele>
        <time>2016-07-31T15:01:31Z</time>
      </trkpt>
      <trkpt lat="46.23928" lon="6.0193">
        <ele>399.57</ele>
        <time>2016-07-31T15:01:36Z</time>
      </trkpt>
      <trkpt lat="46.23908" lon="6.01926">
        <ele>399.57</ele>
        <time>2016-07-31T15:01:41Z</time>
      </trkpt>
      <trkpt lat="46.23888" lon="6.01922">
        <ele>399.57</ele>
        <time>2016-07-31T15:01:46Z</time>
      </trkpt>
      <trkpt lat="46.23866" lon="6.01948">
        <ele>398.12</ele>
        <time>2016-07-31T15:01:51Z</time>
      </trkpt>
      <trkpt lat="46.23841" lon="6.01979">
        <ele>394.76</ele>
        <time>2016-07-31T15:01:56Z</time>
      </trkpt>
      <trkpt lat="46.23856" lon="6.02022">
        <ele>393.8</ele>
        <time>2016-07-31T15:02:01Z</time>
      </trkpt>
      <trkpt lat="46.23875" lon="6.0206">
        <ele>393.32</ele>
        <time>2016-07-31T15:02:06Z</time>
      </trkpt>
      <trkpt lat="46.23894" lon="6.02094">
        <ele>393.32</ele>
        <time>2016-07-31T15:02:11Z</time>
      </trkpt>
      <trkpt lat="46.23908" lon="6.02132">
        <ele>393.8</ele>
        <time>2016-07-31T15:02:16Z</time>
      </trkpt>
      <trkpt lat="46.23927" lon="6.0216">
        <ele>393.32</ele>
        <time>2016-07-31T15:02:21Z</time>
      </trkpt>
      <trkpt lat="46.23946" lon="6.02187">
        <ele>393.32</ele>
        <time>2016-07-31T15:02:26Z</time>
      </trkpt>
      <trkpt lat="46.23965" lon="6.02208">
        <ele>393.8</ele>
        <time>2016-07-31T15:02:31Z</time>
      </trkpt>
      <trkpt lat="46.2398" lon="6.02227">
        <ele>393.8</ele>
        <time>2016-07-31T15:02:36Z</time>
      </trkpt>
      <trkpt lat="46.23972" lon="6.02238">
        <ele>394.28</ele>
        <time>2016-07-31T15:02:41Z</time>
      </trkpt>
      <trkpt lat="46.23959" lon="6.02248">
        <ele>394.76</ele>
        <time>2016-07-31T15:02:46Z</time>
      </trkpt>
      <trkpt lat="46.23945" lon="6.02259">
        <ele>393.8</ele>
        <time>2016-07-31T15:02:51Z</time>
      </trkpt>
      <trkpt lat="46.23934" lon="6.02275">
        <ele>394.28</ele>
        <time>2016-07-31T15:02:56Z</time>
      </trkpt>
      <trkpt lat="46.23932" lon="6.02298">
        <ele>394.28</ele>
        <time>2016-07-31T15:03:01Z</time>
      </trkpt>
      <trkpt lat="46.23933" lon="6.02322">
        <ele>394.28</ele>
        <time>2016-07-31T15:03:06Z</time>
      </trkpt>
      <trkpt lat="46.23919" lon="6.02342">
        <ele>394.28</ele>
        <time>2016-07-31T15:03:11Z</time>
      </trkpt>
      <trkpt lat="46.23925" lon="6.02371">
        <ele>393.32</ele>
        <time>2016-07-31T15:03:16Z</time>
      </trkpt>
      <trkpt lat="46.23917" lon="6.02386">
        <ele>393.32</ele>
        <time>2016-07-31T15:03:21Z</time>
      </trkpt>
      <trkpt lat="46.23911" lon="6.02397">
        <ele>394.76</ele>
        <time>2016-07-31T15:03:26Z</time>
      </trkpt>
      <trkpt lat="46.23913" lon="6.02409">
        <ele>395.24</ele>
        <time>2016-07-31T15:03:31Z</time>
      </trkpt>
      <trkpt lat="46.2391" lon="6.02422">
        <ele>396.2</ele>
        <time>2016-07-31T15:03:36Z</time>
      </trkpt>
      <trkpt lat="46.23908" lon="6.02431">
        <ele>397.64</ele>
        <time>2016-07-31T15:03:41Z</time>
      </trkpt>
      <trkpt lat="46.23901" lon="6.02438">
        <ele>398.6</ele>
        <time>2016-07-31T15:03:46Z</time>
      </trkpt>
      <trkpt lat="46.23891" lon="6.02446">
        <ele>399.08</ele>
        <time>2016-07-31T15:03:51Z</time>
      </trkpt>
      <trkpt lat="46.23884" lon="6.02454">
        <ele>399.57</ele>
        <time>2016-07-31T15:03:56Z</time>
      </trkpt>
      <trkpt lat="46.23877" lon="6.02461">
        <ele>399.57</ele>
        <time>2016-07-31T15:04:01Z</time>
      </trkpt>
      <trkpt lat="46.2387" lon="6.02469">
        <ele>400.05</ele>
        <time>2016-07-31T15:04:06Z</time>
      </trkpt>
      <trkpt lat="46.23864" lon="6.02476">
        <ele>400.05</ele>
        <time>2016-07-31T15:04:11Z</time>
      </trkpt>
      <trkpt lat="46.23855" lon="6.02487">
        <ele>400.05</ele>
        <time>2016-07-31T15:04:16Z</time>
      </trkpt>
      <trkpt lat="46.23846" lon="6.02496">
        <ele>400.05</ele>
        <time>2016-07-31T15:04:21Z</time>
      </trkpt>
      <trkpt lat="46.23838" lon="6.0251">
        <ele>399.57</ele>
        <time>2016-07-31T15:04:26Z</time>
      </trkpt>
      <trkpt lat="46.2383" lon="6.0252">
        <ele>400.05</ele>
        <time>2016-07-31T15:04:31Z</time>
      </trkpt>
      <trkpt lat="46.23823" lon="6.02531">
        <ele>399.57</ele>
        <time>2016-07-31T15:04:36Z</time>
      </trkpt>
      <trkpt lat="46.23813" lon="6.02534">
        <ele>400.05</ele>
        <time>2016-07-31T15:04:41Z</time>
      </trkpt>
      <trkpt lat="46.238" lon="6.02526">
        <ele>400.53</ele>
        <time>2016-07-31T15:04:46Z</time>
      </trkpt>
      <trkpt lat="46.23788" lon="6.02514">
        <ele>401.01</ele>
        <time>2016-07-31T15:04:51Z</time>
      </trkpt>
      <trkpt lat="46.23774" lon="6.02497">
        <ele>400.53</ele>
        <time>2016-07-31T15:04:56Z</time>
      </trkpt>
      <trkpt lat="46.23762" lon="6.02476">
        <ele>401.01</ele>
        <time>2016-07-31T15:05:01Z</time>
      </trkpt>
      <trkpt lat="46.23748" lon="6.02453">
        <ele>400.53</ele>
        <time>2016-07-31T15:05:06Z</time>
      </trkpt>
      <trkpt lat="46.23735" lon="6.02433">
        <ele>399.57</ele>
        <time>2016-07-31T15:05:11Z</time>
      </trkpt>
      <trkpt lat="46.23723" lon="6.02414">
        <ele>400.53</ele>
        <time>2016-07-31T15:05:16Z</time>
      </trkpt>
      <trkpt lat="46.23713" lon="6.02395">
        <ele>401.01</ele>
        <time>2016-07-31T15:05:21Z</time>
      </trkpt>
      <trkpt lat="46.23707" lon="6.02381">
        <ele>400.53</ele>
        <time>2016-07-31T15:05:26Z</time>
      </trkpt>
      <trkpt lat="46.23707" lon="6.02381">
        <ele>401.01</ele>
        <time>2016-07-31T15:05:31Z</time>
      </trkpt>
      <trkpt lat="46.23707" lon="6.02382">
        <ele>400.53</ele>
        <time>2016-07-31T15:05:36Z</time>
      </trkpt>
      <trkpt lat="46.23705" lon="6.02379">
        <ele>401.01</ele>
        <time>2016-07-31T15:05:41Z</time>
      </trkpt>
      <trkpt lat="46.23697" lon="6.02367">
        <ele>401.01</ele>
        <time>2016-07-31T15:05:46Z</time>
      </trkpt>
      <trkpt lat="46.23694" lon="6.0236">
        <ele>401.01</ele>
        <time>2016-07-31T15:05:51Z</time>
      </trkpt>
      <trkpt lat="46.23694" lon="6.02361">
        <ele>400.53</ele>
        <time>2016-07-31T15:05:56Z</time>
      </trkpt>
      <trkpt lat="46.23694" lon="6.02362">
        <ele>400.53</ele>
        <time>2016-07-31T15:06:01Z</time>
      </trkpt>
      <trkpt lat="46.23694" lon="6.02362">
        <ele>400.53</ele>
        <time>2016-07-31T15:06:06Z</time>
      </trkpt>
      <trkpt lat="46.23695" lon="6.02362">
        <ele>400.53</ele>
        <time>2016-07-31T15:06:11Z</time>
      </trkpt>
      <trkpt lat="46.23694" lon="6.02362">
        <ele>400.53</ele>
        <time>2016-07-31T15:06:16Z</time>
      </trkpt>
      <trkpt lat="46.23692" lon="6.02362">
        <ele>400.53</ele>
        <time>2016-07-31T15:06:21Z</time>
      </trkpt>
      <trkpt lat="46.23693" lon="6.02361">
        <ele>401.01</ele>
        <time>2016-07-31T15:06:26Z</time>
      </trkpt>
      <trkpt lat="46.23693" lon="6.02362">
        <ele>400.53</ele>
        <time>2016-07-31T15:06:31Z</time>
      </trkpt>
      <trkpt lat="46.23694" lon="6.02363">
        <ele>400.05</ele>
        <time>2016-07-31T15:06:36Z</time>
      </trkpt>
      <trkpt lat="46.23693" lon="6.02361">
        <ele>400.53</ele>
        <time>2016-07-31T15:06:41Z</time>
      </trkpt>
      <trkpt lat="46.23692" lon="6.0236">
        <ele>401.01</ele>
        <time>2016-07-31T15:06:46Z</time>
      </trkpt>
      <trkpt lat="46.23686" lon="6.0235">
        <ele>400.53</ele>
        <time>2016-07-31T15:06:51Z</time>
      </trkpt>
      <trkpt lat="46.23675" lon="6.02332">
        <ele>400.05</ele>
        <time>2016-07-31T15:06:56Z</time>
      </trkpt>
      <trkpt lat="46.23661" lon="6.02309">
        <ele>400.05</ele>
        <time>2016-07-31T15:07:01Z</time>
      </trkpt>
      <trkpt lat="46.2365" lon="6.02281">
        <ele>400.05</ele>
        <time>2016-07-31T15:07:06Z</time>
      </trkpt>
      <trkpt lat="46.23643" lon="6.02245">
        <ele>399.08</ele>
        <time>2016-07-31T15:07:11Z</time>
      </trkpt>
      <trkpt lat="46.23632" lon="6.02207">
        <ele>399.08</ele>
        <time>2016-07-31T15:07:16Z</time>
      </trkpt>
      <trkpt lat="46.23614" lon="6.02178">
        <ele>399.08</ele>
        <time>2016-07-31T15:07:21Z</time>
      </trkpt>
      <trkpt lat="46.23596" lon="6.02151">
        <ele>399.57</ele>
        <time>2016-07-31T15:07:26Z</time>
      </trkpt>
      <trkpt lat="46.23579" lon="6.02124">
        <ele>400.05</ele>
        <time>2016-07-31T15:07:31Z</time>
      </trkpt>
      <trkpt lat="46.23561" lon="6.02101">
        <ele>399.57</ele>
        <time>2016-07-31T15:07:36Z</time>
      </trkpt>
      <trkpt lat="46.23548" lon="6.0208">
        <ele>400.05</ele>
        <time>2016-07-31T15:07:41Z</time>
      </trkpt>
      <trkpt lat="46.23546" lon="6.02078">
        <ele>399.57</ele>
        <time>2016-07-31T15:07:46Z</time>
      </trkpt>
      <trkpt lat="46.23545" lon="6.02079">
        <ele>399.57</ele>
        <time>2016-07-31T15:07:51Z</time>
      </trkpt>
      <trkpt lat="46.23545" lon="6.02079">
        <ele>399.57</ele>
        <time>2016-07-31T15:07:56Z</time>
      </trkpt>
      <trkpt lat="46.23546" lon="6.02081">
        <ele>399.57</ele>
        <time>2016-07-31T15:08:01Z</time>
      </trkpt>
      <trkpt lat="46.23546" lon="6.02081">
        <ele>399.08</ele>
        <time>2016-07-31T15:08:06Z</time>
      </trkpt>
      <trkpt lat="46.23546" lon="6.02081">
        <ele>399.57</ele>
        <time>2016-07-31T15:08:11Z</time>
      </trkpt>
      <trkpt lat="46.23546" lon="6.02082">
        <ele>399.08</ele>
        <time>2016-07-31T15:08:16Z</time>
      </trkpt>
      <trkpt lat="46.23546" lon="6.02082">
        <ele>399.08</ele>
        <time>2016-07-31T15:08:21Z</time>
      </trkpt>
      <trkpt lat="46.23545" lon="6.02083">
        <ele>399.57</ele>
        <time>2016-07-31T15:08:26Z</time>
      </trkpt>
      <trkpt lat="46.23545" lon="6.02084">
        <ele>399.08</ele>
        <time>2016-07-31T15:08:31Z</time>
      </trkpt>
      <trkpt lat="46.23544" lon="6.02084">
        <ele>399.57</ele>
        <time>2016-07-31T15:08:36Z</time>
      </trkpt>
      <trkpt lat="46.23544" lon="6.02084">
        <ele>399.57</ele>
        <time>2016-07-31T15:08:41Z</time>
      </trkpt>
      <trkpt lat="46.23545" lon="6.02083">
        <ele>399.57</ele>
        <time>2016-07-31T15:08:46Z</time>
      </trkpt>
      <trkpt lat="46.23545" lon="6.02082">
        <ele>399.57</ele>
        <time>2016-07-31T15:08:51Z</time>
      </trkpt>
      <trkpt lat="46.23546" lon="6.02082">
        <ele>399.57</ele>
        <time>2016-07-31T15:08:56Z</time>
      </trkpt>
      <trkpt lat="46.23546" lon="6.02082">
        <ele>400.05</ele>
        <time>2016-07-31T15:09:01Z</time>
      </trkpt>
      <trkpt lat="46.23546" lon="6.02082">
        <ele>399.57</ele>
        <time>2016-07-31T15:09:06Z</time>
      </trkpt>
      <trkpt lat="46.23546" lon="6.02082">
        <ele>399.57</ele>
        <time>2016-07-31T15:09:11Z</time>
      </trkpt>
      <trkpt lat="46.23547" lon="6.0208">
        <ele>399.57</ele>
        <time>2016-07-31T15:09:16Z</time>
      </trkpt>
      <trkpt lat="46.23547" lon="6.0208">
        <ele>400.05</ele>
        <time>2016-07-31T15:09:21Z</time>
      </trkpt>
      <trkpt lat="46.23547" lon="6.02079">
        <ele>399.57</ele>
        <time>2016-07-31T15:09:26Z</time>
      </trkpt>
      <trkpt lat="46.23547" lon="6.02078">
        <ele>399.57</ele>
        <time>2016-07-31T15:09:31Z</time>
      </trkpt>
      <trkpt lat="46.23547" lon="6.02078">
        <ele>399.57</ele>
        <time>2016-07-31T15:09:36Z</time>
      </trkpt>
      <trkpt lat="46.23547" lon="6.02078">
        <ele>399.57</ele>
        <time>2016-07-31T15:09:41Z</time>
      </trkpt>
      <trkpt lat="46.23546" lon="6.02078">
        <ele>400.05</ele>
        <time>2016-07-31T15:09:46Z</time>
      </trkpt>
      <trkpt lat="46.23546" lon="6.02078">
        <ele>399.08</ele>
        <time>2016-07-31T15:09:51Z</time>
      </trkpt>
      <trkpt lat="46.23545" lon="6.02078">
        <ele>399.57</ele>
        <time>2016-07-31T15:09:56Z</time>
      </trkpt>
      <trkpt lat="46.23544" lon="6.0208">
        <ele>399.57</ele>
        <time>2016-07-31T15:10:01Z</time>
      </trkpt>
      <trkpt lat="46.23544" lon="6.02082">
        <ele>400.05</ele>
        <time>2016-07-31T15:10:06Z</time>
      </trkpt>
      <trkpt lat="46.23544" lon="6.02083">
        <ele>399.57</ele>
        <time>2016-07-31T15:10:11Z</time>
      </trkpt>
      <trkpt lat="46.23544" lon="6.02084">
        <ele>399.57</ele>
        <time>2016-07-31T15:10:16Z</time>
      </trkpt>
      <trkpt lat="46.23544" lon="6.02084">
        <ele>399.57</ele>
        <time>2016-07-31T15:10:21Z</time>
      </trkpt>
      <trkpt lat="46.23545" lon="6.02084">
        <ele>400.05</ele>
        <time>2016-07-31T15:10:26Z</time>
      </trkpt>
      <trkpt lat="46.23545" lon="6.02084">
        <ele>399.57</ele>
        <time>2016-07-31T15:10:31Z</time>
      </trkpt>
      <trkpt lat="46.23544" lon="6.02083">
        <ele>399.57</ele>
        <time>2016-07-31T15:10:36Z</time>
      </trkpt>
      <trkpt lat="46.23544" lon="6.02083">
        <ele>400.05</ele>
        <time>2016-07-31T15:10:41Z</time>
      </trkpt>
      <trkpt lat="46.23544" lon="6.02083">
        <ele>399.57</ele>
        <time>2016-07-31T15:10:46Z</time>
      </trkpt>
      <trkpt lat="46.23544" lon="6.02082">
        <ele>399.57</ele>
        <time>2016-07-31T15:10:51Z</time>
      </trkpt>
      <trkpt lat="46.23544" lon="6.02082">
        <ele>399.57</ele>
        <time>2016-07-31T15:10:56Z</time>
      </trkpt>
      <trkpt lat="46.23544" lon="6.02081">
        <ele>399.57</ele>
        <time>2016-07-31T15:11:01Z</time>
      </trkpt>
      <trkpt lat="46.23544" lon="6.02081">
        <ele>400.05</ele>
        <time>2016-07-31T15:11:06Z</time>
      </trkpt>
      <trkpt lat="46.23544" lon="6.02081">
        <ele>399.57</ele>
        <time>2016-07-31T15:11:11Z</time>
      </trkpt>
      <trkpt lat="46.23544" lon="6.02081">
        <ele>400.05</ele>
        <time>2016-07-31T15:11:16Z</time>
      </trkpt>
      <trkpt lat="46.23544" lon="6.02081">
        <ele>400.05</ele>
        <time>2016-07-31T15:11:21Z</time>
      </trkpt>
      <trkpt lat="46.23545" lon="6.0208">
        <ele>399.57</ele>
        <time>2016-07-31T15:11:26Z</time>
      </trkpt>
      <trkpt lat="46.23545" lon="6.02079">
        <ele>399.57</ele>
        <time>2016-07-31T15:11:31Z</time>
      </trkpt>
      <trkpt lat="46.23545" lon="6.02079">
        <ele>400.05</ele>
        <time>2016-07-31T15:11:36Z</time>
      </trkpt>
      <trkpt lat="46.23546" lon="6.02078">
        <ele>399.57</ele>
        <time>2016-07-31T15:11:41Z</time>
      </trkpt>
      <trkpt lat="46.23545" lon="6.02079">
        <ele>400.05</ele>
        <time>2016-07-31T15:11:46Z</time>
      </trkpt>
      <trkpt lat="46.23545" lon="6.02079">
        <ele>399.57</ele>
        <time>2016-07-31T15:11:51Z</time>
      </trkpt>
      <trkpt lat="46.23545" lon="6.0208">
        <ele>400.05</ele>
        <time>2016-07-31T15:11:56Z</time>
      </trkpt>
      <trkpt lat="46.23545" lon="6.02081">
        <ele>400.05</ele>
        <time>2016-07-31T15:12:01Z</time>
      </trkpt>
      <trkpt lat="46.23545" lon="6.02081">
        <ele>399.57</ele>
        <time>2016-07-31T15:12:06Z</time>
      </trkpt>
      <trkpt lat="46.23546" lon="6.02081">
        <ele>399.57</ele>
        <time>2016-07-31T15:12:11Z</time>
      </trkpt>
      <trkpt lat="46.23546" lon="6.0208">
        <ele>400.05</ele>
        <time>2016-07-31T15:12:16Z</time>
      </trkpt>
      <trkpt lat="46.23545" lon="6.0208">
        <ele>400.05</ele>
        <time>2016-07-31T15:12:21Z</time>
      </trkpt>
      <trkpt lat="46.23545" lon="6.0208">
        <ele>399.57</ele>
        <time>2016-07-31T15:12:26Z</time>
      </trkpt>
      <trkpt lat="46.23545" lon="6.02081">
        <ele>399.57</ele>
        <time>2016-07-31T15:12:31Z</time>
      </trkpt>
      <trkpt lat="46.23545" lon="6.02081">
        <ele>400.05</ele>
        <time>2016-07-31T15:12:36Z</time>
      </trkpt>
      <trkpt lat="46.23545" lon="6.0208">
        <ele>400.05</ele>
        <time>2016-07-31T15:12:41Z</time>
      </trkpt>
      <trkpt lat="46.23542" lon="6.02078">
        <ele>400.05</ele>
        <time>2016-07-31T15:12:46Z</time>
      </trkpt>
      <trkpt lat="46.23532" lon="6.02066">
        <ele>399.57</ele>
        <time>2016-07-31T15:12:51Z</time>
      </trkpt>
      <trkpt lat="46.23522" lon="6.02053">
        <ele>399.57</ele>
        <time>2016-07-31T15:12:56Z</time>
      </trkpt>
      <trkpt lat="46.23509" lon="6.0204">
        <ele>400.05</ele>
        <time>2016-07-31T15:13:01Z</time>
      </trkpt>
      <trkpt lat="46.23494" lon="6.02025">
        <ele>399.57</ele>
        <time>2016-07-31T15:13:06Z</time>
      </trkpt>
      <trkpt lat="46.23476" lon="6.02012">
        <ele>399.57</ele>
        <time>2016-07-31T15:13:11Z</time>
      </trkpt>
      <trkpt lat="46.23461" lon="6.02005">
        <ele>399.57</ele>
        <time>2016-07-31T15:13:16Z</time>
      </trkpt>
      <trkpt lat="46.23447" lon="6.01999">
        <ele>399.57</ele>
        <time>2016-07-31T15:13:21Z</time>
      </trkpt>
      <trkpt lat="46.2343" lon="6.01992">
        <ele>399.08</ele>
        <time>2016-07-31T15:13:26Z</time>
      </trkpt>
      <trkpt lat="46.23415" lon="6.01978">
        <ele>399.08</ele>
        <time>2016-07-31T15:13:31Z</time>
      </trkpt>
      <trkpt lat="46.23405" lon="6.01949">
        <ele>399.08</ele>
        <time>2016-07-31T15:13:36Z</time>
      </trkpt>
      <trkpt lat="46.23392" lon="6.01922">
        <ele>399.08</ele>
        <time>2016-07-31T15:13:41Z</time>
      </trkpt>
      <trkpt lat="46.23382" lon="6.01892">
        <ele>399.08</ele>
        <time>2016-07-31T15:13:46Z</time>
      </trkpt>
      <trkpt lat="46.23372" lon="6.01862">
        <ele>399.57</ele>
        <time>2016-07-31T15:13:51Z</time>
      </trkpt>
      <trkpt lat="46.23355" lon="6.01848">
        <ele>399.57</ele>
        <time>2016-07-31T15:13:56Z</time>
      </trkpt>
      <trkpt lat="46.23334" lon="6.01855">
        <ele>399.08</ele>
        <time>2016-07-31T15:14:01Z</time>
      </trkpt>
      <trkpt lat="46.23314" lon="6.01848">
        <ele>398.6</ele>
        <time>2016-07-31T15:14:06Z</time>
      </trkpt>
      <trkpt lat="46.23293" lon="6.0184">
        <ele>398.12</ele>
        <time>2016-07-31T15:14:11Z</time>
      </trkpt>
      <trkpt lat="46.2327" lon="6.01842">
        <ele>397.64</ele>
        <time>2016-07-31T15:14:16Z</time>
      </trkpt>
      <trkpt lat="46.23246" lon="6.01845">
        <ele>396.68</ele>
        <time>2016-07-31T15:14:21Z</time>
      </trkpt>
      <trkpt lat="46.23221" lon="6.0185">
        <ele>395.72</ele>
        <time>2016-07-31T15:14:26Z</time>
      </trkpt>
      <trkpt lat="46.23199" lon="6.01866">
        <ele>395.24</ele>
        <time>2016-07-31T15:14:31Z</time>
      </trkpt>
      <trkpt lat="46.23195" lon="6.01902">
        <ele>394.76</ele>
        <time>2016-07-31T15:14:36Z</time>
      </trkpt>
      <trkpt lat="46.23208" lon="6.01937">
        <ele>394.76</ele>
        <time>2016-07-31T15:14:41Z</time>
      </trkpt>
      <trkpt lat="46.23221" lon="6.01969">
        <ele>394.28</ele>
        <time>2016-07-31T15:14:46Z</time>
      </trkpt>
      <trkpt lat="46.23234" lon="6.01993">
        <ele>395.72</ele>
        <time>2016-07-31T15:14:51Z</time>
      </trkpt>
      <trkpt lat="46.23247" lon="6.02018">
        <ele>397.16</ele>
        <time>2016-07-31T15:14:56Z</time>
      </trkpt>
      <trkpt lat="46.23255" lon="6.02045">
        <ele>397.16</ele>
        <time>2016-07-31T15:15:01Z</time>
      </trkpt>
      <trkpt lat="46.23262" lon="6.02078">
        <ele>397.16</ele>
        <time>2016-07-31T15:15:06Z</time>
      </trkpt>
      <trkpt lat="46.23268" lon="6.02114">
        <ele>397.16</ele>
        <time>2016-07-31T15:15:11Z</time>
      </trkpt>
      <trkpt lat="46.23274" lon="6.02149">
        <ele>397.16</ele>
        <time>2016-07-31T15:15:16Z</time>
      </trkpt>
      <trkpt lat="46.23281" lon="6.02184">
        <ele>397.64</ele>
        <time>2016-07-31T15:15:21Z</time>
      </trkpt>
      <trkpt lat="46.23289" lon="6.0222">
        <ele>397.64</ele>
        <time>2016-07-31T15:15:26Z</time>
      </trkpt>
      <trkpt lat="46.23297" lon="6.02254">
        <ele>398.6</ele>
        <time>2016-07-31T15:15:31Z</time>
      </trkpt>
      <trkpt lat="46.23306" lon="6.02287">
        <ele>399.08</ele>
        <time>2016-07-31T15:15:36Z</time>
      </trkpt>
      <trkpt lat="46.23315" lon="6.02319">
        <ele>399.57</ele>
        <time>2016-07-31T15:15:41Z</time>
      </trkpt>
      <trkpt lat="46.23325" lon="6.02353">
        <ele>399.57</ele>
        <time>2016-07-31T15:15:46Z</time>
      </trkpt>
      <trkpt lat="46.23334" lon="6.02387">
        <ele>400.05</ele>
        <time>2016-07-31T15:15:51Z</time>
      </trkpt>
      <trkpt lat="46.23343" lon="6.02419">
        <ele>399.57</ele>
        <time>2016-07-31T15:15:56Z</time>
      </trkpt>
      <trkpt lat="46.23353" lon="6.02451">
        <ele>399.57</ele>
        <time>2016-07-31T15:16:01Z</time>
      </trkpt>
      <trkpt lat="46.23364" lon="6.02481">
        <ele>400.05</ele>
        <time>2016-07-31T15:16:06Z</time>
      </trkpt>
      <trkpt lat="46.23376" lon="6.02512">
        <ele>400.05</ele>
        <time>2016-07-31T15:16:11Z</time>
      </trkpt>
      <trkpt lat="46.23387" lon="6.0254">
        <ele>400.05</ele>
        <time>2016-07-31T15:16:16Z</time>
      </trkpt>
      <trkpt lat="46.23399" lon="6.02563">
        <ele>400.53</ele>
        <time>2016-07-31T15:16:21Z</time>
      </trkpt>
      <trkpt lat="46.23417" lon="6.02592">
        <ele>400.05</ele>
        <time>2016-07-31T15:16:26Z</time>
      </trkpt>
      <trkpt lat="46.23435" lon="6.02633">
        <ele>399.08</ele>
        <time>2016-07-31T15:16:31Z</time>
      </trkpt>
      <trkpt lat="46.23448" lon="6.02677">
        <ele>400.53</ele>
        <time>2016-07-31T15:16:36Z</time>
      </trkpt>
      <trkpt lat="46.23458" lon="6.02713">
        <ele>401.01</ele>
        <time>2016-07-31T15:16:41Z</time>
      </trkpt>
      <trkpt lat="46.23472" lon="6.02743">
        <ele>401.49</ele>
        <time>2016-07-31T15:16:46Z</time>
      </trkpt>
      <trkpt lat="46.23487" lon="6.02772">
        <ele>401.49</ele>
        <time>2016-07-31T15:16:51Z</time>
      </trkpt>
      <trkpt lat="46.23502" lon="6.02801">
        <ele>401.49</ele>
        <time>2016-07-31T15:16:56Z</time>
      </trkpt>
      <trkpt lat="46.23518" lon="6.02828">
        <ele>401.01</ele>
        <time>2016-07-31T15:17:01Z</time>
      </trkpt>
      <trkpt lat="46.23534" lon="6.02856">
        <ele>401.97</ele>
        <time>2016-07-31T15:17:06Z</time>
      </trkpt>
      <trkpt lat="46.23549" lon="6.02883">
        <ele>402.93</ele>
        <time>2016-07-31T15:17:11Z</time>
      </trkpt>
      <trkpt lat="46.23565" lon="6.02909">
        <ele>402.93</ele>
        <time>2016-07-31T15:17:16Z</time>
      </trkpt>
      <trkpt lat="46.2358" lon="6.02933">
        <ele>403.41</ele>
        <time>2016-07-31T15:17:21Z</time>
      </trkpt>
      <trkpt lat="46.23597" lon="6.02956">
        <ele>402.45</ele>
        <time>2016-07-31T15:17:26Z</time>
      </trkpt>
      <trkpt lat="46.23615" lon="6.02977">
        <ele>402.45</ele>
        <time>2016-07-31T15:17:31Z</time>
      </trkpt>
      <trkpt lat="46.23632" lon="6.02997">
        <ele>401.97</ele>
        <time>2016-07-31T15:17:36Z</time>
      </trkpt>
      <trkpt lat="46.2365" lon="6.0302">
        <ele>401.97</ele>
        <time>2016-07-31T15:17:41Z</time>
      </trkpt>
      <trkpt lat="46.23654" lon="6.03039">
        <ele>401.97</ele>
        <time>2016-07-31T15:17:46Z</time>
      </trkpt>
      <trkpt lat="46.23654" lon="6.03041">
        <ele>401.97</ele>
        <time>2016-07-31T15:17:51Z</time>
      </trkpt>
      <trkpt lat="46.23656" lon="6.03042">
        <ele>402.45</ele>
        <time>2016-07-31T15:17:56Z</time>
      </trkpt>
      <trkpt lat="46.23652" lon="6.03041">
        <ele>402.45</ele>
        <time>2016-07-31T15:18:01Z</time>
      </trkpt>
      <trkpt lat="46.23651" lon="6.03042">
        <ele>402.45</ele>
        <time>2016-07-31T15:18:06Z</time>
      </trkpt>
      <trkpt lat="46.23648" lon="6.03043">
        <ele>402.45</ele>
        <time>2016-07-31T15:18:11Z</time>
      </trkpt>
      <trkpt lat="46.23647" lon="6.03043">
        <ele>401.97</ele>
        <time>2016-07-31T15:18:16Z</time>
      </trkpt>
      <trkpt lat="46.23647" lon="6.03043">
        <ele>402.45</ele>
        <time>2016-07-31T15:18:21Z</time>
      </trkpt>
      <trkpt lat="46.23647" lon="6.03043">
        <ele>401.97</ele>
        <time>2016-07-31T15:18:26Z</time>
      </trkpt>
      <trkpt lat="46.23648" lon="6.03043">
        <ele>402.45</ele>
        <time>2016-07-31T15:18:31Z</time>
      </trkpt>
      <trkpt lat="46.23648" lon="6.03043">
        <ele>402.45</ele>
        <time>2016-07-31T15:18:36Z</time>
      </trkpt>
      <trkpt lat="46.23648" lon="6.03043">
        <ele>402.93</ele>
        <time>2016-07-31T15:18:41Z</time>
      </trkpt>
      <trkpt lat="46.23648" lon="6.03043">
        <ele>402.45</ele>
        <time>2016-07-31T15:18:46Z</time>
      </trkpt>
      <trkpt lat="46.23642" lon="6.03048">
        <ele>402.45</ele>
        <time>2016-07-31T15:18:51Z</time>
      </trkpt>
      <trkpt lat="46.23627" lon="6.0306">
        <ele>402.45</ele>
        <time>2016-07-31T15:18:56Z</time>
      </trkpt>
      <trkpt lat="46.23611" lon="6.03072">
        <ele>402.93</ele>
        <time>2016-07-31T15:19:01Z</time>
      </trkpt>
      <trkpt lat="46.23595" lon="6.03085">
        <ele>403.41</ele>
        <time>2016-07-31T15:19:06Z</time>
      </trkpt>
      <trkpt lat="46.23579" lon="6.03098">
        <ele>403.89</ele>
        <time>2016-07-31T15:19:11Z</time>
      </trkpt>
      <trkpt lat="46.23562" lon="6.03111">
        <ele>403.89</ele>
        <time>2016-07-31T15:19:16Z</time>
      </trkpt>
      <trkpt lat="46.23547" lon="6.03124">
        <ele>404.37</ele>
        <time>2016-07-31T15:19:21Z</time>
      </trkpt>
      <trkpt lat="46.23532" lon="6.03136">
        <ele>404.37</ele>
        <time>2016-07-31T15:19:26Z</time>
      </trkpt>
      <trkpt lat="46.23518" lon="6.03148">
        <ele>404.85</ele>
        <time>2016-07-31T15:19:31Z</time>
      </trkpt>
      <trkpt lat="46.23504" lon="6.03159">
        <ele>405.81</ele>
        <time>2016-07-31T15:19:36Z</time>
      </trkpt>
      <trkpt lat="46.2349" lon="6.03171">
        <ele>406.29</ele>
        <time>2016-07-31T15:19:41Z</time>
      </trkpt>
      <trkpt lat="46.23476" lon="6.03183">
        <ele>407.26</ele>
        <time>2016-07-31T15:19:46Z</time>
      </trkpt>
      <trkpt lat="46.23462" lon="6.03194">
        <ele>407.74</ele>
        <time>2016-07-31T15:19:51Z</time>
      </trkpt>
      <trkpt lat="46.23448" lon="6.03205">
        <ele>408.7</ele>
        <time>2016-07-31T15:19:56Z</time>
      </trkpt>
      <trkpt lat="46.23434" lon="6.03216">
        <ele>408.7</ele>
        <time>2016-07-31T15:20:01Z</time>
      </trkpt>
      <trkpt lat="46.2342" lon="6.03228">
        <ele>410.14</ele>
        <time>2016-07-31T15:20:06Z</time>
      </trkpt>
      <trkpt lat="46.23407" lon="6.03239">
        <ele>410.62</ele>
        <time>2016-07-31T15:20:11Z</time>
      </trkpt>
      <trkpt lat="46.23394" lon="6.0325">
        <ele>411.58</ele>
        <time>2016-07-31T15:20:16Z</time>
      </trkpt>
      <trkpt lat="46.23381" lon="6.03261">
        <ele>412.06</ele>
        <time>2016-07-31T15:20:21Z</time>
      </trkpt>
      <trkpt lat="46.23368" lon="6.03274">
        <ele>413.5</ele>
        <time>2016-07-31T15:20:26Z</time>
      </trkpt>
      <trkpt lat="46.23356" lon="6.03288">
        <ele>413.5</ele>
        <time>2016-07-31T15:20:31Z</time>
      </trkpt>
      <trkpt lat="46.23344" lon="6.03302">
        <ele>414.47</ele>
        <time>2016-07-31T15:20:36Z</time>
      </trkpt>
      <trkpt lat="46.23333" lon="6.03316">
        <ele>414.47</ele>
        <time>2016-07-31T15:20:41Z</time>
      </trkpt>
      <trkpt lat="46.23321" lon="6.0333">
        <ele>415.91</ele>
        <time>2016-07-31T15:20:46Z</time>
      </trkpt>
      <trkpt lat="46.2331" lon="6.03345">
        <ele>416.87</ele>
        <time>2016-07-31T15:20:51Z</time>
      </trkpt>
      <trkpt lat="46.23298" lon="6.03359">
        <ele>416.39</ele>
        <time>2016-07-31T15:20:56Z</time>
      </trkpt>
      <trkpt lat="46.23287" lon="6.03373">
        <ele>417.35</ele>
        <time>2016-07-31T15:21:01Z</time>
      </trkpt>
      <trkpt lat="46.23276" lon="6.03388">
        <ele>418.31</ele>
        <time>2016-07-31T15:21:06Z</time>
      </trkpt>
      <trkpt lat="46.23265" lon="6.034">
        <ele>419.27</ele>
        <time>2016-07-31T15:21:11Z</time>
      </trkpt>
      <trkpt lat="46.23254" lon="6.03415">
        <ele>419.75</ele>
        <time>2016-07-31T15:21:16Z</time>
      </trkpt>
      <trkpt lat="46.23243" lon="6.03429">
        <ele>420.71</ele>
        <time>2016-07-31T15:21:21Z</time>
      </trkpt>
      <trkpt lat="46.23232" lon="6.03442">
        <ele>421.19</ele>
        <time>2016-07-31T15:21:26Z</time>
      </trkpt>
      <trkpt lat="46.23221" lon="6.03455">
        <ele>421.68</ele>
        <time>2016-07-31T15:21:31Z</time>
      </trkpt>
      <trkpt lat="46.2321" lon="6.03468">
        <ele>422.64</ele>
        <time>2016-07-31T15:21:36Z</time>
      </trkpt>
      <trkpt lat="46.23199" lon="6.03483">
        <ele>423.12</ele>
        <time>2016-07-31T15:21:41Z</time>
      </trkpt>
      <trkpt lat="46.23188" lon="6.03496">
        <ele>424.08</ele>
        <time>2016-07-31T15:21:46Z</time>
      </trkpt>
      <trkpt lat="46.23177" lon="6.0351">
        <ele>424.56</ele>
        <time>2016-07-31T15:21:51Z</time>
      </trkpt>
      <trkpt lat="46.23166" lon="6.03525">
        <ele>425.04</ele>
        <time>2016-07-31T15:21:56Z</time>
      </trkpt>
      <trkpt lat="46.23155" lon="6.0354">
        <ele>426</ele>
        <time>2016-07-31T15:22:01Z</time>
      </trkpt>
      <trkpt lat="46.23144" lon="6.03557">
        <ele>426.48</ele>
        <time>2016-07-31T15:22:06Z</time>
      </trkpt>
      <trkpt lat="46.23134" lon="6.03572">
        <ele>427.44</ele>
        <time>2016-07-31T15:22:11Z</time>
      </trkpt>
      <trkpt lat="46.23124" lon="6.03588">
        <ele>427.92</ele>
        <time>2016-07-31T15:22:16Z</time>
      </trkpt>
      <trkpt lat="46.23115" lon="6.03603">
        <ele>428.4</ele>
        <time>2016-07-31T15:22:21Z</time>
      </trkpt>
      <trkpt lat="46.23106" lon="6.03618">
        <ele>428.89</ele>
        <time>2016-07-31T15:22:26Z</time>
      </trkpt>
      <trkpt lat="46.23096" lon="6.03634">
        <ele>428.89</ele>
        <time>2016-07-31T15:22:31Z</time>
      </trkpt>
      <trkpt lat="46.23085" lon="6.03651">
        <ele>429.85</ele>
        <time>2016-07-31T15:22:36Z</time>
      </trkpt>
      <trkpt lat="46.23076" lon="6.03667">
        <ele>429.85</ele>
        <time>2016-07-31T15:22:41Z</time>
      </trkpt>
      <trkpt lat="46.23066" lon="6.03682">
        <ele>429.85</ele>
        <time>2016-07-31T15:22:46Z</time>
      </trkpt>
      <trkpt lat="46.23056" lon="6.03699">
        <ele>429.37</ele>
        <time>2016-07-31T15:22:51Z</time>
      </trkpt>
      <trkpt lat="46.23047" lon="6.03712">
        <ele>429.85</ele>
        <time>2016-07-31T15:22:56Z</time>
      </trkpt>
      <trkpt lat="46.23036" lon="6.03716">
        <ele>429.37</ele>
        <time>2016-07-31T15:23:01Z</time>
      </trkpt>
      <trkpt lat="46.23028" lon="6.03703">
        <ele>429.85</ele>
        <time>2016-07-31T15:23:06Z</time>
      </trkpt>
      <trkpt lat="46.23024" lon="6.03685">
        <ele>429.85</ele>
        <time>2016-07-31T15:23:11Z</time>
      </trkpt>
      <trkpt lat="46.23021" lon="6.03667">
        <ele>430.81</ele>
        <time>2016-07-31T15:23:16Z</time>
      </trkpt>
      <trkpt lat="46.23017" lon="6.03645">
        <ele>430.81</ele>
        <time>2016-07-31T15:23:21Z</time>
      </trkpt>
      <trkpt lat="46.2301" lon="6.0362">
        <ele>431.77</ele>
        <time>2016-07-31T15:23:26Z</time>
      </trkpt>
      <trkpt lat="46.22999" lon="6.03599">
        <ele>432.25</ele>
        <time>2016-07-31T15:23:31Z</time>
      </trkpt>
      <trkpt lat="46.22984" lon="6.03582">
        <ele>432.25</ele>
        <time>2016-07-31T15:23:36Z</time>
      </trkpt>
      <trkpt lat="46.22969" lon="6.03571">
        <ele>433.69</ele>
        <time>2016-07-31T15:23:41Z</time>
      </trkpt>
      <trkpt lat="46.22953" lon="6.0356">
        <ele>434.65</ele>
        <time>2016-07-31T15:23:46Z</time>
      </trkpt>
      <trkpt lat="46.22936" lon="6.03551">
        <ele>435.61</ele>
        <time>2016-07-31T15:23:51Z</time>
      </trkpt>
      <trkpt lat="46.22921" lon="6.03538">
        <ele>436.1</ele>
        <time>2016-07-31T15:23:56Z</time>
      </trkpt>
      <trkpt lat="46.22906" lon="6.03524">
        <ele>437.06</ele>
        <time>2016-07-31T15:24:01Z</time>
      </trkpt>
      <trkpt lat="46.22894" lon="6.03511">
        <ele>437.06</ele>
        <time>2016-07-31T15:24:06Z</time>
      </trkpt>
      <trkpt lat="46.22881" lon="6.03497">
        <ele>438.02</ele>
        <time>2016-07-31T15:24:11Z</time>
      </trkpt>
      <trkpt lat="46.22869" lon="6.03483">
        <ele>438.5</ele>
        <time>2016-07-31T15:24:16Z</time>
      </trkpt>
      <trkpt lat="46.22856" lon="6.0347">
        <ele>439.46</ele>
        <time>2016-07-31T15:24:21Z</time>
      </trkpt>
      <trkpt lat="46.22844" lon="6.03455">
        <ele>439.46</ele>
        <time>2016-07-31T15:24:26Z</time>
      </trkpt>
      <trkpt lat="46.22833" lon="6.03441">
        <ele>440.42</ele>
        <time>2016-07-31T15:24:31Z</time>
      </trkpt>
      <trkpt lat="46.22822" lon="6.03427">
        <ele>440.9</ele>
        <time>2016-07-31T15:24:36Z</time>
      </trkpt>
      <trkpt lat="46.2281" lon="6.03414">
        <ele>441.38</ele>
        <time>2016-07-31T15:24:41Z</time>
      </trkpt>
      <trkpt lat="46.22798" lon="6.03399">
        <ele>442.82</ele>
        <time>2016-07-31T15:24:46Z</time>
      </trkpt>
      <trkpt lat="46.22786" lon="6.03386">
        <ele>442.82</ele>
        <time>2016-07-31T15:24:51Z</time>
      </trkpt>
      <trkpt lat="46.22772" lon="6.03377">
        <ele>443.79</ele>
        <time>2016-07-31T15:24:56Z</time>
      </trkpt>
      <trkpt lat="46.22757" lon="6.03371">
        <ele>444.75</ele>
        <time>2016-07-31T15:25:01Z</time>
      </trkpt>
      <trkpt lat="46.22744" lon="6.03363">
        <ele>444.75</ele>
        <time>2016-07-31T15:25:06Z</time>
      </trkpt>
      <trkpt lat="46.22731" lon="6.03353">
        <ele>445.71</ele>
        <time>2016-07-31T15:25:11Z</time>
      </trkpt>
      <trkpt lat="46.22719" lon="6.03341">
        <ele>446.67</ele>
        <time>2016-07-31T15:25:16Z</time>
      </trkpt>
      <trkpt lat="46.22708" lon="6.03325">
        <ele>447.63</ele>
        <time>2016-07-31T15:25:21Z</time>
      </trkpt>
      <trkpt lat="46.22698" lon="6.0331">
        <ele>449.07</ele>
        <time>2016-07-31T15:25:26Z</time>
      </trkpt>
      <trkpt lat="46.22688" lon="6.03296">
        <ele>450.03</ele>
        <time>2016-07-31T15:25:31Z</time>
      </trkpt>
      <trkpt lat="46.22679" lon="6.03282">
        <ele>450.03</ele>
        <time>2016-07-31T15:25:36Z</time>
      </trkpt>
      <trkpt lat="46.2267" lon="6.0327">
        <ele>451.48</ele>
        <time>2016-07-31T15:25:41Z</time>
      </trkpt>
      <trkpt lat="46.22662" lon="6.03257">
        <ele>451.96</ele>
        <time>2016-07-31T15:25:46Z</time>
      </trkpt>
      <trkpt lat="46.22655" lon="6.03246">
        <ele>452.44</ele>
        <time>2016-07-31T15:25:51Z</time>
      </trkpt>
      <trkpt lat="46.22647" lon="6.03235">
        <ele>453.4</ele>
        <time>2016-07-31T15:25:56Z</time>
      </trkpt>
      <trkpt lat="46.22641" lon="6.03225">
        <ele>453.88</ele>
        <time>2016-07-31T15:26:01Z</time>
      </trkpt>
      <trkpt lat="46.22633" lon="6.03214">
        <ele>455.32</ele>
        <time>2016-07-31T15:26:06Z</time>
      </trkpt>
      <trkpt lat="46.22624" lon="6.03202">
        <ele>455.8</ele>
        <time>2016-07-31T15:26:11Z</time>
      </trkpt>
      <trkpt lat="46.22615" lon="6.03193">
        <ele>455.8</ele>
        <time>2016-07-31T15:26:16Z</time>
      </trkpt>
      <trkpt lat="46.22607" lon="6.03182">
        <ele>456.28</ele>
        <time>2016-07-31T15:26:21Z</time>
      </trkpt>
      <trkpt lat="46.22599" lon="6.03172">
        <ele>456.76</ele>
        <time>2016-07-31T15:26:26Z</time>
      </trkpt>
      <trkpt lat="46.2259" lon="6.03161">
        <ele>456.76</ele>
        <time>2016-07-31T15:26:31Z</time>
      </trkpt>
      <trkpt lat="46.2258" lon="6.03148">
        <ele>457.24</ele>
        <time>2016-07-31T15:26:36Z</time>
      </trkpt>
      <trkpt lat="46.2257" lon="6.03137">
        <ele>457.24</ele>
        <time>2016-07-31T15:26:41Z</time>
      </trkpt>
      <trkpt lat="46.2256" lon="6.03125">
        <ele>457.72</ele>
        <time>2016-07-31T15:26:46Z</time>
      </trkpt>
      <trkpt lat="46.22551" lon="6.03113">
        <ele>457.72</ele>
        <time>2016-07-31T15:26:51Z</time>
      </trkpt>
      <trkpt lat="46.2254" lon="6.031">
        <ele>457.72</ele>
        <time>2016-07-31T15:26:56Z</time>
      </trkpt>
      <trkpt lat="46.2253" lon="6.03088">
        <ele>457.72</ele>
        <time>2016-07-31T15:27:01Z</time>
      </trkpt>
      <trkpt lat="46.22519" lon="6.03076">
        <ele>458.69</ele>
        <time>2016-07-31T15:27:06Z</time>
      </trkpt>
      <trkpt lat="46.22508" lon="6.03066">
        <ele>458.69</ele>
        <time>2016-07-31T15:27:11Z</time>
      </trkpt>
      <trkpt lat="46.22496" lon="6.03057">
        <ele>459.17</ele>
        <time>2016-07-31T15:27:16Z</time>
      </trkpt>
      <trkpt lat="46.22484" lon="6.03047">
        <ele>459.17</ele>
        <time>2016-07-31T15:27:21Z</time>
      </trkpt>
      <trkpt lat="46.2247" lon="6.03037">
        <ele>459.65</ele>
        <time>2016-07-31T15:27:26Z</time>
      </trkpt>
      <trkpt lat="46.22456" lon="6.03023">
        <ele>459.65</ele>
        <time>2016-07-31T15:27:31Z</time>
      </trkpt>
      <trkpt lat="46.22443" lon="6.03008">
        <ele>460.13</ele>
        <time>2016-07-31T15:27:36Z</time>
      </trkpt>
      <trkpt lat="46.22431" lon="6.02992">
        <ele>460.13</ele>
        <time>2016-07-31T15:27:41Z</time>
      </trkpt>
      <trkpt lat="46.22419" lon="6.02974">
        <ele>460.13</ele>
        <time>2016-07-31T15:27:46Z</time>
      </trkpt>
      <trkpt lat="46.22404" lon="6.02958">
        <ele>460.61</ele>
        <time>2016-07-31T15:27:51Z</time>
      </trkpt>
      <trkpt lat="46.2239" lon="6.02942">
        <ele>461.09</ele>
        <time>2016-07-31T15:27:56Z</time>
      </trkpt>
      <trkpt lat="46.22375" lon="6.02928">
        <ele>461.09</ele>
        <time>2016-07-31T15:28:01Z</time>
      </trkpt>
      <trkpt lat="46.22361" lon="6.02913">
        <ele>461.57</ele>
        <time>2016-07-31T15:28:06Z</time>
      </trkpt>
      <trkpt lat="46.22346" lon="6.029">
        <ele>461.09</ele>
        <time>2016-07-31T15:28:11Z</time>
      </trkpt>
      <trkpt lat="46.22331" lon="6.0288">
        <ele>460.61</ele>
        <time>2016-07-31T15:28:16Z</time>
      </trkpt>
      <trkpt lat="46.22314" lon="6.0285">
        <ele>459.17</ele>
        <time>2016-07-31T15:28:21Z</time>
      </trkpt>
      <trkpt lat="46.22296" lon="6.02819">
        <ele>458.69</ele>
        <time>2016-07-31T15:28:26Z</time>
      </trkpt>
      <trkpt lat="46.22279" lon="6.02789">
        <ele>458.21</ele>
        <time>2016-07-31T15:28:31Z</time>
      </trkpt>
      <trkpt lat="46.22261" lon="6.02759">
        <ele>457.72</ele>
        <time>2016-07-31T15:28:36Z</time>
      </trkpt>
      <trkpt lat="46.22246" lon="6.02734">
        <ele>457.72</ele>
        <time>2016-07-31T15:28:41Z</time>
      </trkpt>
      <trkpt lat="46.22233" lon="6.02715">
        <ele>457.72</ele>
        <time>2016-07-31T15:28:46Z</time>
      </trkpt>
      <trkpt lat="46.22216" lon="6.02694">
        <ele>459.17</ele>
        <time>2016-07-31T15:28:51Z</time>
      </trkpt>
      <trkpt lat="46.222" lon="6.02674">
        <ele>459.65</ele>
        <time>2016-07-31T15:28:56Z</time>
      </trkpt>
      <trkpt lat="46.22182" lon="6.02654">
        <ele>460.13</ele>
        <time>2016-07-31T15:29:01Z</time>
      </trkpt>
      <trkpt lat="46.22167" lon="6.02635">
        <ele>461.09</ele>
        <time>2016-07-31T15:29:06Z</time>
      </trkpt>
      <trkpt lat="46.22152" lon="6.02615">
        <ele>461.57</ele>
        <time>2016-07-31T15:29:11Z</time>
      </trkpt>
      <trkpt lat="46.22139" lon="6.02594">
        <ele>462.53</ele>
        <time>2016-07-31T15:29:16Z</time>
      </trkpt>
      <trkpt lat="46.22129" lon="6.02568">
        <ele>463.01</ele>
        <time>2016-07-31T15:29:21Z</time>
      </trkpt>
      <trkpt lat="46.22118" lon="6.02546">
        <ele>463.49</ele>
        <time>2016-07-31T15:29:26Z</time>
      </trkpt>
      <trkpt lat="46.22105" lon="6.02527">
        <ele>463.49</ele>
        <time>2016-07-31T15:29:31Z</time>
      </trkpt>
      <trkpt lat="46.22093" lon="6.02507">
        <ele>463.49</ele>
        <time>2016-07-31T15:29:36Z</time>
      </trkpt>
      <trkpt lat="46.22081" lon="6.02488">
        <ele>463.49</ele>
        <time>2016-07-31T15:29:41Z</time>
      </trkpt>
      <trkpt lat="46.22069" lon="6.02472">
        <ele>463.01</ele>
        <time>2016-07-31T15:29:46Z</time>
      </trkpt>
      <trkpt lat="46.22053" lon="6.02458">
        <ele>463.01</ele>
        <time>2016-07-31T15:29:51Z</time>
      </trkpt>
      <trkpt lat="46.22036" lon="6.02444">
        <ele>462.05</ele>
        <time>2016-07-31T15:29:56Z</time>
      </trkpt>
      <trkpt lat="46.22018" lon="6.0243">
        <ele>462.53</ele>
        <time>2016-07-31T15:30:01Z</time>
      </trkpt>
      <trkpt lat="46.22002" lon="6.02414">
        <ele>462.05</ele>
        <time>2016-07-31T15:30:06Z</time>
      </trkpt>
      <trkpt lat="46.21988" lon="6.02394">
        <ele>461.57</ele>
        <time>2016-07-31T15:30:11Z</time>
      </trkpt>
      <trkpt lat="46.21972" lon="6.02367">
        <ele>461.09</ele>
        <time>2016-07-31T15:30:16Z</time>
      </trkpt>
      <trkpt lat="46.21972" lon="6.02327">
        <ele>461.09</ele>
        <time>2016-07-31T15:30:21Z</time>
      </trkpt>
      <trkpt lat="46.2198" lon="6.02287">
        <ele>461.09</ele>
        <time>2016-07-31T15:30:26Z</time>
      </trkpt>
      <trkpt lat="46.21971" lon="6.0225">
        <ele>461.09</ele>
        <time>2016-07-31T15:30:31Z</time>
      </trkpt>
      <trkpt lat="46.2195" lon="6.02225">
        <ele>460.61</ele>
        <time>2016-07-31T15:30:36Z</time>
      </trkpt>
      <trkpt lat="46.21922" lon="6.02212">
        <ele>460.13</ele>
        <time>2016-07-31T15:30:41Z</time>
      </trkpt>
      <trkpt lat="46.21889" lon="6.022">
        <ele>458.69</ele>
        <time>2016-07-31T15:30:46Z</time>
      </trkpt>
      <trkpt lat="46.21855" lon="6.02187">
        <ele>457.72</ele>
        <time>2016-07-31T15:30:51Z</time>
      </trkpt>
      <trkpt lat="46.21822" lon="6.02175">
        <ele>457.24</ele>
        <time>2016-07-31T15:30:56Z</time>
      </trkpt>
      <trkpt lat="46.21788" lon="6.02161">
        <ele>456.28</ele>
        <time>2016-07-31T15:31:01Z</time>
      </trkpt>
      <trkpt lat="46.21752" lon="6.02172">
        <ele>455.8</ele>
        <time>2016-07-31T15:31:06Z</time>
      </trkpt>
      <trkpt lat="46.2172" lon="6.02192">
        <ele>455.8</ele>
        <time>2016-07-31T15:31:11Z</time>
      </trkpt>
      <trkpt lat="46.21691" lon="6.02171">
        <ele>456.28</ele>
        <time>2016-07-31T15:31:16Z</time>
      </trkpt>
      <trkpt lat="46.21666" lon="6.02147">
        <ele>455.8</ele>
        <time>2016-07-31T15:31:21Z</time>
      </trkpt>
      <trkpt lat="46.2164" lon="6.0212">
        <ele>454.36</ele>
        <time>2016-07-31T15:31:26Z</time>
      </trkpt>
      <trkpt lat="46.2161" lon="6.02091">
        <ele>452.44</ele>
        <time>2016-07-31T15:31:31Z</time>
      </trkpt>
      <trkpt lat="46.2158" lon="6.02062">
        <ele>451.96</ele>
        <time>2016-07-31T15:31:36Z</time>
      </trkpt>
      <trkpt lat="46.21554" lon="6.02055">
        <ele>450.52</ele>
        <time>2016-07-31T15:31:41Z</time>
      </trkpt>
      <trkpt lat="46.21548" lon="6.02027">
        <ele>448.11</ele>
        <time>2016-07-31T15:31:46Z</time>
      </trkpt>
      <trkpt lat="46.21555" lon="6.01981">
        <ele>447.63</ele>
        <time>2016-07-31T15:31:51Z</time>
      </trkpt>
      <trkpt lat="46.21561" lon="6.01938">
        <ele>447.15</ele>
        <time>2016-07-31T15:31:56Z</time>
      </trkpt>
      <trkpt lat="46.21571" lon="6.01903">
        <ele>447.15</ele>
        <time>2016-07-31T15:32:01Z</time>
      </trkpt>
      <trkpt lat="46.21581" lon="6.01869">
        <ele>447.15</ele>
        <time>2016-07-31T15:32:06Z</time>
      </trkpt>
      <trkpt lat="46.21593" lon="6.01832">
        <ele>448.11</ele>
        <time>2016-07-31T15:32:11Z</time>
      </trkpt>
      <trkpt lat="46.21603" lon="6.01799">
        <ele>448.59</ele>
        <time>2016-07-31T15:32:16Z</time>
      </trkpt>
      <trkpt lat="46.2161" lon="6.01768">
        <ele>448.11</ele>
        <time>2016-07-31T15:32:21Z</time>
      </trkpt>
      <trkpt lat="46.21613" lon="6.01736">
        <ele>448.11</ele>
        <time>2016-07-31T15:32:26Z</time>
      </trkpt>
      <trkpt lat="46.21614" lon="6.01702">
        <ele>448.11</ele>
        <time>2016-07-31T15:32:31Z</time>
      </trkpt>
      <trkpt lat="46.21618" lon="6.01672">
        <ele>448.59</ele>
        <time>2016-07-31T15:32:36Z</time>
      </trkpt>
      <trkpt lat="46.21623" lon="6.01657">
        <ele>448.11</ele>
        <time>2016-07-31T15:32:41Z</time>
      </trkpt>
      <trkpt lat="46.21622" lon="6.01658">
        <ele>448.11</ele>
        <time>2016-07-31T15:32:46Z</time>
      </trkpt>
      <trkpt lat="46.21622" lon="6.01656">
        <ele>447.63</ele>
        <time>2016-07-31T15:32:51Z</time>
      </trkpt>
      <trkpt lat="46.21622" lon="6.01656">
        <ele>448.11</ele>
        <time>2016-07-31T15:32:56Z</time>
      </trkpt>
      <trkpt lat="46.21622" lon="6.01656">
        <ele>447.63</ele>
        <time>2016-07-31T15:33:01Z</time>
      </trkpt>
      <trkpt lat="46.21623" lon="6.01656">
        <ele>448.11</ele>
        <time>2016-07-31T15:33:06Z</time>
      </trkpt>
      <trkpt lat="46.21622" lon="6.01655">
        <ele>447.63</ele>
        <time>2016-07-31T15:33:11Z</time>
      </trkpt>
      <trkpt lat="46.21622" lon="6.01655">
        <ele>448.11</ele>
        <time>2016-07-31T15:33:16Z</time>
      </trkpt>
      <trkpt lat="46.21622" lon="6.01655">
        <ele>448.11</ele>
        <time>2016-07-31T15:33:21Z</time>
      </trkpt>
      <trkpt lat="46.21622" lon="6.01656">
        <ele>448.11</ele>
        <time>2016-07-31T15:33:26Z</time>
      </trkpt>
      <trkpt lat="46.21622" lon="6.01656">
        <ele>448.11</ele>
        <time>2016-07-31T15:33:31Z</time>
      </trkpt>
      <trkpt lat="46.21622" lon="6.01656">
        <ele>448.11</ele>
        <time>2016-07-31T15:33:36Z</time>
      </trkpt>
      <trkpt lat="46.21622" lon="6.01656">
        <ele>448.11</ele>
        <time>2016-07-31T15:33:41Z</time>
      </trkpt>
      <trkpt lat="46.21622" lon="6.01656">
        <ele>448.11</ele>
        <time>2016-07-31T15:33:46Z</time>
      </trkpt>
      <trkpt lat="46.21622" lon="6.01656">
        <ele>448.59</ele>
        <time>2016-07-31T15:33:51Z</time>
      </trkpt>
      <trkpt lat="46.21622" lon="6.01656">
        <ele>448.11</ele>
        <time>2016-07-31T15:33:56Z</time>
      </trkpt>
      <trkpt lat="46.21622" lon="6.01656">
        <ele>448.11</ele>
        <time>2016-07-31T15:34:01Z</time>
      </trkpt>
      <trkpt lat="46.21622" lon="6.01656">
        <ele>448.11</ele>
        <time>2016-07-31T15:34:06Z</time>
      </trkpt>
      <trkpt lat="46.21622" lon="6.01656">
        <ele>448.11</ele>
        <time>2016-07-31T15:34:11Z</time>
      </trkpt>
      <trkpt lat="46.21622" lon="6.01656">
        <ele>448.59</ele>
        <time>2016-07-31T15:34:16Z</time>
      </trkpt>
      <trkpt lat="46.21622" lon="6.01656">
        <ele>448.11</ele>
        <time>2016-07-31T15:34:21Z</time>
      </trkpt>
      <trkpt lat="46.21622" lon="6.01657">
        <ele>448.59</ele>
        <time>2016-07-31T15:34:26Z</time>
      </trkpt>
      <trkpt lat="46.21622" lon="6.01656">
        <ele>448.59</ele>
        <time>2016-07-31T15:34:31Z</time>
      </trkpt>
      <trkpt lat="46.21622" lon="6.01656">
        <ele>448.11</ele>
        <time>2016-07-31T15:34:36Z</time>
      </trkpt>
      <trkpt lat="46.21622" lon="6.01656">
        <ele>448.11</ele>
        <time>2016-07-31T15:34:41Z</time>
      </trkpt>
      <trkpt lat="46.21622" lon="6.01656">
        <ele>448.59</ele>
        <time>2016-07-31T15:34:46Z</time>
      </trkpt>
      <trkpt lat="46.21622" lon="6.01656">
        <ele>448.59</ele>
        <time>2016-07-31T15:34:51Z</time>
      </trkpt>
      <trkpt lat="46.21622" lon="6.01656">
        <ele>448.59</ele>
        <time>2016-07-31T15:34:56Z</time>
      </trkpt>
      <trkpt lat="46.21622" lon="6.01655">
        <ele>448.59</ele>
        <time>2016-07-31T15:35:01Z</time>
      </trkpt>
      <trkpt lat="46.21622" lon="6.01655">
        <ele>448.59</ele>
        <time>2016-07-31T15:35:06Z</time>
      </trkpt>
      <trkpt lat="46.21622" lon="6.01655">
        <ele>448.59</ele>
        <time>2016-07-31T15:35:11Z</time>
      </trkpt>
      <trkpt lat="46.21622" lon="6.01655">
        <ele>448.59</ele>
        <time>2016-07-31T15:35:16Z</time>
      </trkpt>
      <trkpt lat="46.21622" lon="6.01655">
        <ele>448.59</ele>
        <time>2016-07-31T15:35:21Z</time>
      </trkpt>
      <trkpt lat="46.21622" lon="6.01655">
        <ele>448.59</ele>
        <time>2016-07-31T15:35:26Z</time>
      </trkpt>
      <trkpt lat="46.21622" lon="6.01656">
        <ele>448.59</ele>
        <time>2016-07-31T15:35:31Z</time>
      </trkpt>
      <trkpt lat="46.21622" lon="6.01656">
        <ele>448.59</ele>
        <time>2016-07-31T15:35:36Z</time>
      </trkpt>
      <trkpt lat="46.21622" lon="6.01656">
        <ele>448.59</ele>
        <time>2016-07-31T15:35:41Z</time>
      </trkpt>
      <trkpt lat="46.21622" lon="6.01656">
        <ele>448.59</ele>
        <time>2016-07-31T15:35:46Z</time>
      </trkpt>
      <trkpt lat="46.21622" lon="6.01656">
        <ele>448.59</ele>
        <time>2016-07-31T15:35:51Z</time>
      </trkpt>
      <trkpt lat="46.21622" lon="6.01656">
        <ele>448.11</ele>
        <time>2016-07-31T15:35:56Z</time>
      </trkpt>
      <trkpt lat="46.21622" lon="6.01656">
        <ele>448.59</ele>
        <time>2016-07-31T15:36:01Z</time>
      </trkpt>
      <trkpt lat="46.21622" lon="6.01656">
        <ele>448.11</ele>
        <time>2016-07-31T15:36:06Z</time>
      </trkpt>
      <trkpt lat="46.21623" lon="6.01654">
        <ele>448.11</ele>
        <time>2016-07-31T15:36:11Z</time>
      </trkpt>
      <trkpt lat="46.21627" lon="6.01641">
        <ele>448.11</ele>
        <time>2016-07-31T15:36:16Z</time>
      </trkpt>
      <trkpt lat="46.21636" lon="6.01619">
        <ele>446.67</ele>
        <time>2016-07-31T15:36:21Z</time>
      </trkpt>
      <trkpt lat="46.2165" lon="6.01587">
        <ele>446.67</ele>
        <time>2016-07-31T15:36:26Z</time>
      </trkpt>
      <trkpt lat="46.21665" lon="6.0155">
        <ele>444.27</ele>
        <time>2016-07-31T15:36:31Z</time>
      </trkpt>
      <trkpt lat="46.21681" lon="6.01514">
        <ele>443.31</ele>
        <time>2016-07-31T15:36:36Z</time>
      </trkpt>
      <trkpt lat="46.21684" lon="6.01482">
        <ele>441.86</ele>
        <time>2016-07-31T15:36:41Z</time>
      </trkpt>
      <trkpt lat="46.21679" lon="6.01442">
        <ele>441.38</ele>
        <time>2016-07-31T15:36:46Z</time>
      </trkpt>
      <trkpt lat="46.21673" lon="6.01397">
        <ele>439.94</ele>
        <time>2016-07-31T15:36:51Z</time>
      </trkpt>
      <trkpt lat="46.21668" lon="6.01357">
        <ele>438.98</ele>
        <time>2016-07-31T15:36:56Z</time>
      </trkpt>
      <trkpt lat="46.21662" lon="6.0132">
        <ele>438.02</ele>
        <time>2016-07-31T15:37:01Z</time>
      </trkpt>
      <trkpt lat="46.21656" lon="6.01281">
        <ele>437.54</ele>
        <time>2016-07-31T15:37:06Z</time>
      </trkpt>
      <trkpt lat="46.21648" lon="6.01239">
        <ele>436.58</ele>
        <time>2016-07-31T15:37:11Z</time>
      </trkpt>
      <trkpt lat="46.21636" lon="6.01195">
        <ele>434.65</ele>
        <time>2016-07-31T15:37:16Z</time>
      </trkpt>
      <trkpt lat="46.21623" lon="6.01151">
        <ele>434.17</ele>
        <time>2016-07-31T15:37:21Z</time>
      </trkpt>
      <trkpt lat="46.21607" lon="6.01108">
        <ele>432.73</ele>
        <time>2016-07-31T15:37:26Z</time>
      </trkpt>
      <trkpt lat="46.21588" lon="6.01066">
        <ele>431.77</ele>
        <time>2016-07-31T15:37:31Z</time>
      </trkpt>
      <trkpt lat="46.21569" lon="6.01031">
        <ele>429.85</ele>
        <time>2016-07-31T15:37:36Z</time>
      </trkpt>
      <trkpt lat="46.21553" lon="6.01001">
        <ele>428.4</ele>
        <time>2016-07-31T15:37:41Z</time>
      </trkpt>
      <trkpt lat="46.21543" lon="6.00978">
        <ele>426.48</ele>
        <time>2016-07-31T15:37:46Z</time>
      </trkpt>
      <trkpt lat="46.21536" lon="6.00963">
        <ele>425.52</ele>
        <time>2016-07-31T15:37:51Z</time>
      </trkpt>
      <trkpt lat="46.21536" lon="6.00961">
        <ele>426</ele>
        <time>2016-07-31T15:37:56Z</time>
      </trkpt>
      <trkpt lat="46.21536" lon="6.00962">
        <ele>425.52</ele>
        <time>2016-07-31T15:38:01Z</time>
      </trkpt>
      <trkpt lat="46.21537" lon="6.00962">
        <ele>425.52</ele>
        <time>2016-07-31T15:38:06Z</time>
      </trkpt>
      <trkpt lat="46.21537" lon="6.00961">
        <ele>425.52</ele>
        <time>2016-07-31T15:38:11Z</time>
      </trkpt>
      <trkpt lat="46.21534" lon="6.00959">
        <ele>425.52</ele>
        <time>2016-07-31T15:38:16Z</time>
      </trkpt>
      <trkpt lat="46.21534" lon="6.0096">
        <ele>425.52</ele>
        <time>2016-07-31T15:38:21Z</time>
      </trkpt>
      <trkpt lat="46.21534" lon="6.0096">
        <ele>425.52</ele>
        <time>2016-07-31T15:38:26Z</time>
      </trkpt>
      <trkpt lat="46.21532" lon="6.00955">
        <ele>426</ele>
        <time>2016-07-31T15:38:31Z</time>
      </trkpt>
      <trkpt lat="46.21541" lon="6.00941">
        <ele>426</ele>
        <time>2016-07-31T15:38:36Z</time>
      </trkpt>
      <trkpt lat="46.21551" lon="6.00923">
        <ele>426.48</ele>
        <time>2016-07-31T15:38:41Z</time>
      </trkpt>
      <trkpt lat="46.21559" lon="6.00906">
        <ele>426</ele>
        <time>2016-07-31T15:38:46Z</time>
      </trkpt>
      <trkpt lat="46.21565" lon="6.00887">
        <ele>426</ele>
        <time>2016-07-31T15:38:51Z</time>
      </trkpt>
      <trkpt lat="46.21571" lon="6.00865">
        <ele>426</ele>
        <time>2016-07-31T15:38:56Z</time>
      </trkpt>
      <trkpt lat="46.21578" lon="6.0084">
        <ele>425.52</ele>
        <time>2016-07-31T15:39:01Z</time>
      </trkpt>
      <trkpt lat="46.21585" lon="6.00813">
        <ele>424.56</ele>
        <time>2016-07-31T15:39:06Z</time>
      </trkpt>
      <trkpt lat="46.21594" lon="6.00778">
        <ele>424.08</ele>
        <time>2016-07-31T15:39:11Z</time>
      </trkpt>
      <trkpt lat="46.21602" lon="6.00737">
        <ele>423.12</ele>
        <time>2016-07-31T15:39:16Z</time>
      </trkpt>
      <trkpt lat="46.21605" lon="6.00693">
        <ele>422.16</ele>
        <time>2016-07-31T15:39:21Z</time>
      </trkpt>
      <trkpt lat="46.2161" lon="6.00649">
        <ele>420.71</ele>
        <time>2016-07-31T15:39:26Z</time>
      </trkpt>
      <trkpt lat="46.2162" lon="6.00606">
        <ele>419.27</ele>
        <time>2016-07-31T15:39:31Z</time>
      </trkpt>
      <trkpt lat="46.21621" lon="6.00554">
        <ele>417.83</ele>
        <time>2016-07-31T15:39:36Z</time>
      </trkpt>
      <trkpt lat="46.21615" lon="6.0049">
        <ele>414.47</ele>
        <time>2016-07-31T15:39:41Z</time>
      </trkpt>
      <trkpt lat="46.21613" lon="6.00417">
        <ele>410.62</ele>
        <time>2016-07-31T15:39:46Z</time>
      </trkpt>
      <trkpt lat="46.21623" lon="6.0035">
        <ele>407.74</ele>
        <time>2016-07-31T15:39:51Z</time>
      </trkpt>
      <trkpt lat="46.21652" lon="6.00301">
        <ele>405.81</ele>
        <time>2016-07-31T15:39:56Z</time>
      </trkpt>
      <trkpt lat="46.21682" lon="6.00242">
        <ele>400.05</ele>
        <time>2016-07-31T15:40:01Z</time>
      </trkpt>
      <trkpt lat="46.21713" lon="6.00181">
        <ele>393.32</ele>
        <time>2016-07-31T15:40:06Z</time>
      </trkpt>
      <trkpt lat="46.21738" lon="6.00122">
        <ele>388.03</ele>
        <time>2016-07-31T15:40:11Z</time>
      </trkpt>
      <trkpt lat="46.21748" lon="6.0006">
        <ele>381.3</ele>
        <time>2016-07-31T15:40:16Z</time>
      </trkpt>
      <trkpt lat="46.21736" lon="6.00011">
        <ele>377.45</ele>
        <time>2016-07-31T15:40:21Z</time>
      </trkpt>
      <trkpt lat="46.21717" lon="5.99972">
        <ele>376.01</ele>
        <time>2016-07-31T15:40:26Z</time>
      </trkpt>
      <trkpt lat="46.21709" lon="5.99928">
        <ele>373.13</ele>
        <time>2016-07-31T15:40:31Z</time>
      </trkpt>
      <trkpt lat="46.21697" lon="5.99887">
        <ele>370.24</ele>
        <time>2016-07-31T15:40:36Z</time>
      </trkpt>
      <trkpt lat="46.21709" lon="5.99858">
        <ele>368.32</ele>
        <time>2016-07-31T15:40:41Z</time>
      </trkpt>
      <trkpt lat="46.21725" lon="5.99829">
        <ele>367.36</ele>
        <time>2016-07-31T15:40:46Z</time>
      </trkpt>
      <trkpt lat="46.21721" lon="5.9979">
        <ele>366.4</ele>
        <time>2016-07-31T15:40:51Z</time>
      </trkpt>
      <trkpt lat="46.21713" lon="5.99766">
        <ele>365.44</ele>
        <time>2016-07-31T15:40:56Z</time>
      </trkpt>
      <trkpt lat="46.21714" lon="5.99762">
        <ele>365.44</ele>
        <time>2016-07-31T15:41:01Z</time>
      </trkpt>
      <trkpt lat="46.21716" lon="5.99759">
        <ele>365.44</ele>
        <time>2016-07-31T15:41:06Z</time>
      </trkpt>
      <trkpt lat="46.21719" lon="5.99754">
        <ele>365.92</ele>
        <time>2016-07-31T15:41:11Z</time>
      </trkpt>
      <trkpt lat="46.21722" lon="5.9975">
        <ele>366.4</ele>
        <time>2016-07-31T15:41:16Z</time>
      </trkpt>
      <trkpt lat="46.21727" lon="5.99749">
        <ele>366.88</ele>
        <time>2016-07-31T15:41:21Z</time>
      </trkpt>
      <trkpt lat="46.21731" lon="5.99742">
        <ele>366.88</ele>
        <time>2016-07-31T15:41:26Z</time>
      </trkpt>
      <trkpt lat="46.21735" lon="5.9973">
        <ele>367.36</ele>
        <time>2016-07-31T15:41:31Z</time>
      </trkpt>
      <trkpt lat="46.21736" lon="5.99719">
        <ele>367.36</ele>
        <time>2016-07-31T15:41:36Z</time>
      </trkpt>
      <trkpt lat="46.21737" lon="5.99711">
        <ele>367.36</ele>
        <time>2016-07-31T15:41:41Z</time>
      </trkpt>
      <trkpt lat="46.21737" lon="5.99702">
        <ele>367.36</ele>
        <time>2016-07-31T15:41:46Z</time>
      </trkpt>
      <trkpt lat="46.21738" lon="5.99691">
        <ele>367.84</ele>
        <time>2016-07-31T15:41:51Z</time>
      </trkpt>
      <trkpt lat="46.21738" lon="5.99679">
        <ele>367.84</ele>
        <time>2016-07-31T15:41:56Z</time>
      </trkpt>
      <trkpt lat="46.2174" lon="5.9966">
        <ele>367.84</ele>
        <time>2016-07-31T15:42:01Z</time>
      </trkpt>
      <trkpt lat="46.21738" lon="5.99642">
        <ele>368.32</ele>
        <time>2016-07-31T15:42:06Z</time>
      </trkpt>
      <trkpt lat="46.21737" lon="5.99625">
        <ele>367.84</ele>
        <time>2016-07-31T15:42:11Z</time>
      </trkpt>
      <trkpt lat="46.21739" lon="5.99608">
        <ele>368.8</ele>
        <time>2016-07-31T15:42:16Z</time>
      </trkpt>
      <trkpt lat="46.21744" lon="5.99591">
        <ele>369.76</ele>
        <time>2016-07-31T15:42:21Z</time>
      </trkpt>
      <trkpt lat="46.2175" lon="5.99577">
        <ele>370.73</ele>
        <time>2016-07-31T15:42:26Z</time>
      </trkpt>
      <trkpt lat="46.21759" lon="5.99569">
        <ele>372.17</ele>
        <time>2016-07-31T15:42:31Z</time>
      </trkpt>
      <trkpt lat="46.21765" lon="5.99563">
        <ele>372.65</ele>
        <time>2016-07-31T15:42:36Z</time>
      </trkpt>
      <trkpt lat="46.2177" lon="5.99557">
        <ele>373.61</ele>
        <time>2016-07-31T15:42:41Z</time>
      </trkpt>
      <trkpt lat="46.21777" lon="5.99552">
        <ele>374.57</ele>
        <time>2016-07-31T15:42:46Z</time>
      </trkpt>
      <trkpt lat="46.21783" lon="5.99548">
        <ele>375.53</ele>
        <time>2016-07-31T15:42:51Z</time>
      </trkpt>
      <trkpt lat="46.21791" lon="5.99547">
        <ele>376.49</ele>
        <time>2016-07-31T15:42:56Z</time>
      </trkpt>
      <trkpt lat="46.21796" lon="5.99552">
        <ele>377.94</ele>
        <time>2016-07-31T15:43:01Z</time>
      </trkpt>
      <trkpt lat="46.21802" lon="5.99559">
        <ele>378.42</ele>
        <time>2016-07-31T15:43:06Z</time>
      </trkpt>
      <trkpt lat="46.21808" lon="5.99565">
        <ele>379.86</ele>
        <time>2016-07-31T15:43:11Z</time>
      </trkpt>
      <trkpt lat="46.21815" lon="5.99571">
        <ele>380.82</ele>
        <time>2016-07-31T15:43:16Z</time>
      </trkpt>
      <trkpt lat="46.21823" lon="5.99575">
        <ele>382.26</ele>
        <time>2016-07-31T15:43:21Z</time>
      </trkpt>
      <trkpt lat="46.21831" lon="5.99576">
        <ele>383.22</ele>
        <time>2016-07-31T15:43:26Z</time>
      </trkpt>
      <trkpt lat="46.21838" lon="5.99578">
        <ele>384.66</ele>
        <time>2016-07-31T15:43:31Z</time>
      </trkpt>
      <trkpt lat="46.21846" lon="5.99579">
        <ele>385.63</ele>
        <time>2016-07-31T15:43:36Z</time>
      </trkpt>
      <trkpt lat="46.21852" lon="5.99582">
        <ele>386.59</ele>
        <time>2016-07-31T15:43:41Z</time>
      </trkpt>
      <trkpt lat="46.21859" lon="5.99587">
        <ele>388.03</ele>
        <time>2016-07-31T15:43:46Z</time>
      </trkpt>
      <trkpt lat="46.21865" lon="5.99593">
        <ele>388.99</ele>
        <time>2016-07-31T15:43:51Z</time>
      </trkpt>
      <trkpt lat="46.21871" lon="5.99599">
        <ele>389.95</ele>
        <time>2016-07-31T15:43:56Z</time>
      </trkpt>
      <trkpt lat="46.21877" lon="5.99606">
        <ele>390.43</ele>
        <time>2016-07-31T15:44:01Z</time>
      </trkpt>
      <trkpt lat="46.21879" lon="5.99608">
        <ele>390.43</ele>
        <time>2016-07-31T15:44:06Z</time>
      </trkpt>
      <trkpt lat="46.2188" lon="5.99609">
        <ele>390.43</ele>
        <time>2016-07-31T15:44:11Z</time>
      </trkpt>
      <trkpt lat="46.21883" lon="5.99611">
        <ele>390.43</ele>
        <time>2016-07-31T15:44:16Z</time>
      </trkpt>
      <trkpt lat="46.21884" lon="5.99611">
        <ele>390.43</ele>
        <time>2016-07-31T15:44:21Z</time>
      </trkpt>
      <trkpt lat="46.21883" lon="5.99612">
        <ele>390.91</ele>
        <time>2016-07-31T15:44:26Z</time>
      </trkpt>
      <trkpt lat="46.21883" lon="5.99612">
        <ele>390.43</ele>
        <time>2016-07-31T15:44:31Z</time>
      </trkpt>
      <trkpt lat="46.21884" lon="5.99612">
        <ele>390.43</ele>
        <time>2016-07-31T15:44:36Z</time>
      </trkpt>
      <trkpt lat="46.21885" lon="5.99613">
        <ele>390.43</ele>
        <time>2016-07-31T15:44:41Z</time>
      </trkpt>
      <trkpt lat="46.21886" lon="5.99613">
        <ele>390.43</ele>
        <time>2016-07-31T15:44:46Z</time>
      </trkpt>
      <trkpt lat="46.21887" lon="5.99615">
        <ele>390.91</ele>
        <time>2016-07-31T15:44:51Z</time>
      </trkpt>
      <trkpt lat="46.21886" lon="5.99614">
        <ele>390.91</ele>
        <time>2016-07-31T15:44:56Z</time>
      </trkpt>
      <trkpt lat="46.21885" lon="5.99613">
        <ele>390.43</ele>
        <time>2016-07-31T15:45:01Z</time>
      </trkpt>
      <trkpt lat="46.21884" lon="5.99613">
        <ele>390.43</ele>
        <time>2016-07-31T15:45:06Z</time>
      </trkpt>
      <trkpt lat="46.21884" lon="5.99612">
        <ele>390.91</ele>
        <time>2016-07-31T15:45:11Z</time>
      </trkpt>
      <trkpt lat="46.21884" lon="5.99612">
        <ele>390.43</ele>
        <time>2016-07-31T15:45:16Z</time>
      </trkpt>
      <trkpt lat="46.21884" lon="5.99611">
        <ele>390.43</ele>
        <time>2016-07-31T15:45:21Z</time>
      </trkpt>
      <trkpt lat="46.21884" lon="5.99612">
        <ele>390.43</ele>
        <time>2016-07-31T15:45:26Z</time>
      </trkpt>
      <trkpt lat="46.21884" lon="5.99611">
        <ele>390.43</ele>
        <time>2016-07-31T15:45:31Z</time>
      </trkpt>
      <trkpt lat="46.21885" lon="5.9961">
        <ele>390.43</ele>
        <time>2016-07-31T15:45:36Z</time>
      </trkpt>
      <trkpt lat="46.21884" lon="5.9961">
        <ele>390.91</ele>
        <time>2016-07-31T15:45:41Z</time>
      </trkpt>
      <trkpt lat="46.21883" lon="5.9961">
        <ele>390.43</ele>
        <time>2016-07-31T15:45:46Z</time>
      </trkpt>
      <trkpt lat="46.21884" lon="5.99609">
        <ele>390.91</ele>
        <time>2016-07-31T15:45:51Z</time>
      </trkpt>
      <trkpt lat="46.21883" lon="5.99609">
        <ele>390.43</ele>
        <time>2016-07-31T15:45:56Z</time>
      </trkpt>
      <trkpt lat="46.21883" lon="5.99608">
        <ele>390.43</ele>
        <time>2016-07-31T15:46:01Z</time>
      </trkpt>
      <trkpt lat="46.21883" lon="5.99608">
        <ele>390.91</ele>
        <time>2016-07-31T15:46:06Z</time>
      </trkpt>
      <trkpt lat="46.21883" lon="5.99609">
        <ele>389.95</ele>
        <time>2016-07-31T15:46:11Z</time>
      </trkpt>
      <trkpt lat="46.21884" lon="5.9961">
        <ele>390.43</ele>
        <time>2016-07-31T15:46:16Z</time>
      </trkpt>
      <trkpt lat="46.21885" lon="5.99609">
        <ele>390.43</ele>
        <time>2016-07-31T15:46:21Z</time>
      </trkpt>
      <trkpt lat="46.21884" lon="5.99608">
        <ele>390.43</ele>
        <time>2016-07-31T15:46:26Z</time>
      </trkpt>
      <trkpt lat="46.21885" lon="5.99609">
        <ele>390.91</ele>
        <time>2016-07-31T15:46:31Z</time>
      </trkpt>
      <trkpt lat="46.21885" lon="5.9961">
        <ele>390.91</ele>
        <time>2016-07-31T15:46:36Z</time>
      </trkpt>
      <trkpt lat="46.21884" lon="5.99611">
        <ele>390.91</ele>
        <time>2016-07-31T15:46:41Z</time>
      </trkpt>
      <trkpt lat="46.21885" lon="5.99611">
        <ele>390.91</ele>
        <time>2016-07-31T15:46:46Z</time>
      </trkpt>
      <trkpt lat="46.21885" lon="5.9961">
        <ele>390.91</ele>
        <time>2016-07-31T15:46:51Z</time>
      </trkpt>
      <trkpt lat="46.21885" lon="5.99608">
        <ele>390.91</ele>
        <time>2016-07-31T15:46:56Z</time>
      </trkpt>
      <trkpt lat="46.21884" lon="5.99607">
        <ele>390.91</ele>
        <time>2016-07-31T15:47:01Z</time>
      </trkpt>
      <trkpt lat="46.21884" lon="5.99608">
        <ele>390.91</ele>
        <time>2016-07-31T15:47:06Z</time>
      </trkpt>
      <trkpt lat="46.21884" lon="5.99607">
        <ele>390.91</ele>
        <time>2016-07-31T15:47:11Z</time>
      </trkpt>
      <trkpt lat="46.21883" lon="5.99608">
        <ele>390.91</ele>
        <time>2016-07-31T15:47:16Z</time>
      </trkpt>
      <trkpt lat="46.21883" lon="5.99609">
        <ele>390.91</ele>
        <time>2016-07-31T15:47:21Z</time>
      </trkpt>
      <trkpt lat="46.21883" lon="5.99609">
        <ele>390.91</ele>
        <time>2016-07-31T15:47:26Z</time>
      </trkpt>
      <trkpt lat="46.21883" lon="5.99609">
        <ele>390.91</ele>
        <time>2016-07-31T15:47:31Z</time>
      </trkpt>
      <trkpt lat="46.21882" lon="5.99608">
        <ele>390.43</ele>
        <time>2016-07-31T15:47:36Z</time>
      </trkpt>
      <trkpt lat="46.21883" lon="5.9961">
        <ele>390.91</ele>
        <time>2016-07-31T15:47:41Z</time>
      </trkpt>
      <trkpt lat="46.21885" lon="5.99613">
        <ele>390.91</ele>
        <time>2016-07-31T15:47:46Z</time>
      </trkpt>
      <trkpt lat="46.21887" lon="5.99614">
        <ele>390.43</ele>
        <time>2016-07-31T15:47:51Z</time>
      </trkpt>
      <trkpt lat="46.21891" lon="5.99614">
        <ele>391.39</ele>
        <time>2016-07-31T15:47:56Z</time>
      </trkpt>
      <trkpt lat="46.21897" lon="5.99619">
        <ele>391.39</ele>
        <time>2016-07-31T15:48:01Z</time>
      </trkpt>
      <trkpt lat="46.21904" lon="5.99623">
        <ele>392.36</ele>
        <time>2016-07-31T15:48:06Z</time>
      </trkpt>
      <trkpt lat="46.21911" lon="5.99626">
        <ele>392.36</ele>
        <time>2016-07-31T15:48:11Z</time>
      </trkpt>
      <trkpt lat="46.21917" lon="5.99628">
        <ele>392.84</ele>
        <time>2016-07-31T15:48:16Z</time>
      </trkpt>
      <trkpt lat="46.21925" lon="5.99632">
        <ele>392.84</ele>
        <time>2016-07-31T15:48:21Z</time>
      </trkpt>
      <trkpt lat="46.21936" lon="5.99638">
        <ele>392.84</ele>
        <time>2016-07-31T15:48:26Z</time>
      </trkpt>
      <trkpt lat="46.21947" lon="5.99643">
        <ele>393.32</ele>
        <time>2016-07-31T15:48:31Z</time>
      </trkpt>
      <trkpt lat="46.21956" lon="5.99643">
        <ele>394.28</ele>
        <time>2016-07-31T15:48:36Z</time>
      </trkpt>
      <trkpt lat="46.21964" lon="5.99644">
        <ele>394.28</ele>
        <time>2016-07-31T15:48:41Z</time>
      </trkpt>
      <trkpt lat="46.21977" lon="5.99642">
        <ele>394.76</ele>
        <time>2016-07-31T15:48:46Z</time>
      </trkpt>
      <trkpt lat="46.21988" lon="5.99636">
        <ele>395.72</ele>
        <time>2016-07-31T15:48:51Z</time>
      </trkpt>
      <trkpt lat="46.21997" lon="5.99622">
        <ele>395.24</ele>
        <time>2016-07-31T15:48:56Z</time>
      </trkpt>
      <trkpt lat="46.22004" lon="5.99605">
        <ele>396.2</ele>
        <time>2016-07-31T15:49:01Z</time>
      </trkpt>
      <trkpt lat="46.2201" lon="5.99591">
        <ele>396.68</ele>
        <time>2016-07-31T15:49:06Z</time>
      </trkpt>
      <trkpt lat="46.22016" lon="5.99576">
        <ele>396.68</ele>
        <time>2016-07-31T15:49:11Z</time>
      </trkpt>
      <trkpt lat="46.22022" lon="5.99563">
        <ele>397.16</ele>
        <time>2016-07-31T15:49:16Z</time>
      </trkpt>
      <trkpt lat="46.22026" lon="5.99549">
        <ele>397.64</ele>
        <time>2016-07-31T15:49:21Z</time>
      </trkpt>
      <trkpt lat="46.22033" lon="5.99534">
        <ele>398.12</ele>
        <time>2016-07-31T15:49:26Z</time>
      </trkpt>
      <trkpt lat="46.22039" lon="5.99518">
        <ele>398.6</ele>
        <time>2016-07-31T15:49:31Z</time>
      </trkpt>
      <trkpt lat="46.22045" lon="5.99502">
        <ele>398.6</ele>
        <time>2016-07-31T15:49:36Z</time>
      </trkpt>
      <trkpt lat="46.22052" lon="5.99486">
        <ele>398.6</ele>
        <time>2016-07-31T15:49:41Z</time>
      </trkpt>
      <trkpt lat="46.22058" lon="5.9947">
        <ele>399.08</ele>
        <time>2016-07-31T15:49:46Z</time>
      </trkpt>
      <trkpt lat="46.22065" lon="5.99453">
        <ele>399.57</ele>
        <time>2016-07-31T15:49:51Z</time>
      </trkpt>
      <trkpt lat="46.22073" lon="5.99435">
        <ele>400.05</ele>
        <time>2016-07-31T15:49:56Z</time>
      </trkpt>
      <trkpt lat="46.2208" lon="5.99418">
        <ele>400.53</ele>
        <time>2016-07-31T15:50:01Z</time>
      </trkpt>
      <trkpt lat="46.22086" lon="5.99401">
        <ele>401.01</ele>
        <time>2016-07-31T15:50:06Z</time>
      </trkpt>
      <trkpt lat="46.22094" lon="5.99385">
        <ele>401.01</ele>
        <time>2016-07-31T15:50:11Z</time>
      </trkpt>
      <trkpt lat="46.22101" lon="5.99369">
        <ele>401.97</ele>
        <time>2016-07-31T15:50:16Z</time>
      </trkpt>
      <trkpt lat="46.22106" lon="5.99355">
        <ele>401.49</ele>
        <time>2016-07-31T15:50:21Z</time>
      </trkpt>
      <trkpt lat="46.22111" lon="5.99339">
        <ele>401.49</ele>
        <time>2016-07-31T15:50:26Z</time>
      </trkpt>
      <trkpt lat="46.22115" lon="5.99325">
        <ele>401.97</ele>
        <time>2016-07-31T15:50:31Z</time>
      </trkpt>
      <trkpt lat="46.22118" lon="5.99307">
        <ele>401.49</ele>
        <time>2016-07-31T15:50:36Z</time>
      </trkpt>
      <trkpt lat="46.2212" lon="5.99291">
        <ele>401.49</ele>
        <time>2016-07-31T15:50:41Z</time>
      </trkpt>
      <trkpt lat="46.22121" lon="5.99272">
        <ele>401.49</ele>
        <time>2016-07-31T15:50:46Z</time>
      </trkpt>
      <trkpt lat="46.22123" lon="5.99252">
        <ele>401.97</ele>
        <time>2016-07-31T15:50:51Z</time>
      </trkpt>
      <trkpt lat="46.22124" lon="5.99233">
        <ele>401.49</ele>
        <time>2016-07-31T15:50:56Z</time>
      </trkpt>
      <trkpt lat="46.22125" lon="5.99215">
        <ele>401.97</ele>
        <time>2016-07-31T15:51:01Z</time>
      </trkpt>
      <trkpt lat="46.22127" lon="5.99196">
        <ele>401.97</ele>
        <time>2016-07-31T15:51:06Z</time>
      </trkpt>
      <trkpt lat="46.22128" lon="5.99179">
        <ele>403.41</ele>
        <time>2016-07-31T15:51:11Z</time>
      </trkpt>
      <trkpt lat="46.22131" lon="5.99164">
        <ele>403.89</ele>
        <time>2016-07-31T15:51:16Z</time>
      </trkpt>
      <trkpt lat="46.22132" lon="5.99147">
        <ele>403.89</ele>
        <time>2016-07-31T15:51:21Z</time>
      </trkpt>
      <trkpt lat="46.22133" lon="5.99129">
        <ele>404.85</ele>
        <time>2016-07-31T15:51:26Z</time>
      </trkpt>
      <trkpt lat="46.22138" lon="5.9911">
        <ele>405.33</ele>
        <time>2016-07-31T15:51:31Z</time>
      </trkpt>
      <trkpt lat="46.22141" lon="5.99089">
        <ele>405.81</ele>
        <time>2016-07-31T15:51:36Z</time>
      </trkpt>
      <trkpt lat="46.22141" lon="5.99071">
        <ele>406.77</ele>
        <time>2016-07-31T15:51:41Z</time>
      </trkpt>
      <trkpt lat="46.22142" lon="5.99059">
        <ele>408.22</ele>
        <time>2016-07-31T15:51:46Z</time>
      </trkpt>
      <trkpt lat="46.22146" lon="5.99056">
        <ele>408.22</ele>
        <time>2016-07-31T15:51:51Z</time>
      </trkpt>
      <trkpt lat="46.22146" lon="5.99054">
        <ele>407.74</ele>
        <time>2016-07-31T15:51:56Z</time>
      </trkpt>
      <trkpt lat="46.22145" lon="5.99054">
        <ele>408.7</ele>
        <time>2016-07-31T15:52:01Z</time>
      </trkpt>
      <trkpt lat="46.22144" lon="5.99054">
        <ele>408.22</ele>
        <time>2016-07-31T15:52:06Z</time>
      </trkpt>
      <trkpt lat="46.22144" lon="5.99054">
        <ele>408.22</ele>
        <time>2016-07-31T15:52:11Z</time>
      </trkpt>
      <trkpt lat="46.22144" lon="5.99053">
        <ele>408.22</ele>
        <time>2016-07-31T15:52:16Z</time>
      </trkpt>
      <trkpt lat="46.22145" lon="5.99052">
        <ele>408.7</ele>
        <time>2016-07-31T15:52:21Z</time>
      </trkpt>
      <trkpt lat="46.22145" lon="5.99051">
        <ele>408.22</ele>
        <time>2016-07-31T15:52:26Z</time>
      </trkpt>
      <trkpt lat="46.22145" lon="5.9905">
        <ele>407.74</ele>
        <time>2016-07-31T15:52:31Z</time>
      </trkpt>
      <trkpt lat="46.22144" lon="5.9905">
        <ele>408.22</ele>
        <time>2016-07-31T15:52:36Z</time>
      </trkpt>
      <trkpt lat="46.22144" lon="5.99049">
        <ele>408.22</ele>
        <time>2016-07-31T15:52:41Z</time>
      </trkpt>
      <trkpt lat="46.22144" lon="5.99049">
        <ele>408.22</ele>
        <time>2016-07-31T15:52:46Z</time>
      </trkpt>
      <trkpt lat="46.22144" lon="5.99048">
        <ele>407.74</ele>
        <time>2016-07-31T15:52:51Z</time>
      </trkpt>
      <trkpt lat="46.22143" lon="5.99046">
        <ele>408.22</ele>
        <time>2016-07-31T15:52:56Z</time>
      </trkpt>
      <trkpt lat="46.22143" lon="5.99045">
        <ele>407.74</ele>
        <time>2016-07-31T15:53:01Z</time>
      </trkpt>
      <trkpt lat="46.22144" lon="5.99044">
        <ele>408.22</ele>
        <time>2016-07-31T15:53:06Z</time>
      </trkpt>
      <trkpt lat="46.22144" lon="5.99044">
        <ele>408.22</ele>
        <time>2016-07-31T15:53:11Z</time>
      </trkpt>
      <trkpt lat="46.22144" lon="5.99045">
        <ele>407.74</ele>
        <time>2016-07-31T15:53:16Z</time>
      </trkpt>
      <trkpt lat="46.2215" lon="5.99036">
        <ele>408.22</ele>
        <time>2016-07-31T15:53:21Z</time>
      </trkpt>
      <trkpt lat="46.22156" lon="5.99027">
        <ele>408.22</ele>
        <time>2016-07-31T15:53:26Z</time>
      </trkpt>
      <trkpt lat="46.22163" lon="5.99016">
        <ele>408.22</ele>
        <time>2016-07-31T15:53:31Z</time>
      </trkpt>
      <trkpt lat="46.22172" lon="5.99003">
        <ele>409.18</ele>
        <time>2016-07-31T15:53:36Z</time>
      </trkpt>
      <trkpt lat="46.22183" lon="5.98991">
        <ele>409.18</ele>
        <time>2016-07-31T15:53:41Z</time>
      </trkpt>
      <trkpt lat="46.22194" lon="5.9898">
        <ele>409.18</ele>
        <time>2016-07-31T15:53:46Z</time>
      </trkpt>
      <trkpt lat="46.22204" lon="5.98969">
        <ele>409.66</ele>
        <time>2016-07-31T15:53:51Z</time>
      </trkpt>
      <trkpt lat="46.22214" lon="5.98956">
        <ele>410.14</ele>
        <time>2016-07-31T15:53:56Z</time>
      </trkpt>
      <trkpt lat="46.22224" lon="5.98943">
        <ele>410.62</ele>
        <time>2016-07-31T15:54:01Z</time>
      </trkpt>
      <trkpt lat="46.22234" lon="5.98932">
        <ele>410.14</ele>
        <time>2016-07-31T15:54:06Z</time>
      </trkpt>
      <trkpt lat="46.22244" lon="5.98919">
        <ele>410.14</ele>
        <time>2016-07-31T15:54:11Z</time>
      </trkpt>
      <trkpt lat="46.22253" lon="5.98911">
        <ele>409.66</ele>
        <time>2016-07-31T15:54:16Z</time>
      </trkpt>
      <trkpt lat="46.22262" lon="5.98902">
        <ele>408.7</ele>
        <time>2016-07-31T15:54:21Z</time>
      </trkpt>
      <trkpt lat="46.22271" lon="5.98894">
        <ele>408.22</ele>
        <time>2016-07-31T15:54:26Z</time>
      </trkpt>
      <trkpt lat="46.22279" lon="5.9889">
        <ele>407.74</ele>
        <time>2016-07-31T15:54:31Z</time>
      </trkpt>
      <trkpt lat="46.22288" lon="5.98889">
        <ele>407.26</ele>
        <time>2016-07-31T15:54:36Z</time>
      </trkpt>
      <trkpt lat="46.22297" lon="5.98888">
        <ele>405.81</ele>
        <time>2016-07-31T15:54:41Z</time>
      </trkpt>
      <trkpt lat="46.22309" lon="5.98882">
        <ele>406.29</ele>
        <time>2016-07-31T15:54:46Z</time>
      </trkpt>
      <trkpt lat="46.22324" lon="5.98874">
        <ele>405.81</ele>
        <time>2016-07-31T15:54:51Z</time>
      </trkpt>
      <trkpt lat="46.22339" lon="5.98858">
        <ele>406.29</ele>
        <time>2016-07-31T15:54:56Z</time>
      </trkpt>
      <trkpt lat="46.22351" lon="5.98842">
        <ele>405.81</ele>
        <time>2016-07-31T15:55:01Z</time>
      </trkpt>
      <trkpt lat="46.22362" lon="5.98826">
        <ele>405.81</ele>
        <time>2016-07-31T15:55:06Z</time>
      </trkpt>
      <trkpt lat="46.22379" lon="5.98811">
        <ele>406.29</ele>
        <time>2016-07-31T15:55:11Z</time>
      </trkpt>
      <trkpt lat="46.22394" lon="5.98801">
        <ele>406.29</ele>
        <time>2016-07-31T15:55:16Z</time>
      </trkpt>
      <trkpt lat="46.22412" lon="5.98795">
        <ele>407.26</ele>
        <time>2016-07-31T15:55:21Z</time>
      </trkpt>
      <trkpt lat="46.22427" lon="5.98789">
        <ele>408.22</ele>
        <time>2016-07-31T15:55:26Z</time>
      </trkpt>
      <trkpt lat="46.22439" lon="5.98778">
        <ele>408.22</ele>
        <time>2016-07-31T15:55:31Z</time>
      </trkpt>
      <trkpt lat="46.22449" lon="5.98768">
        <ele>408.7</ele>
        <time>2016-07-31T15:55:36Z</time>
      </trkpt>
      <trkpt lat="46.22459" lon="5.98752">
        <ele>409.18</ele>
        <time>2016-07-31T15:55:41Z</time>
      </trkpt>
      <trkpt lat="46.22466" lon="5.98735">
        <ele>409.66</ele>
        <time>2016-07-31T15:55:46Z</time>
      </trkpt>
      <trkpt lat="46.22471" lon="5.98719">
        <ele>410.62</ele>
        <time>2016-07-31T15:55:51Z</time>
      </trkpt>
      <trkpt lat="46.22475" lon="5.98702">
        <ele>411.1</ele>
        <time>2016-07-31T15:55:56Z</time>
      </trkpt>
      <trkpt lat="46.22479" lon="5.98687">
        <ele>411.58</ele>
        <time>2016-07-31T15:56:01Z</time>
      </trkpt>
      <trkpt lat="46.22484" lon="5.98669">
        <ele>412.54</ele>
        <time>2016-07-31T15:56:06Z</time>
      </trkpt>
      <trkpt lat="46.22489" lon="5.98652">
        <ele>412.54</ele>
        <time>2016-07-31T15:56:11Z</time>
      </trkpt>
      <trkpt lat="46.22494" lon="5.98635">
        <ele>413.02</ele>
        <time>2016-07-31T15:56:16Z</time>
      </trkpt>
      <trkpt lat="46.225" lon="5.98617">
        <ele>413.02</ele>
        <time>2016-07-31T15:56:21Z</time>
      </trkpt>
      <trkpt lat="46.22508" lon="5.98599">
        <ele>413.02</ele>
        <time>2016-07-31T15:56:26Z</time>
      </trkpt>
      <trkpt lat="46.22516" lon="5.98581">
        <ele>413.98</ele>
        <time>2016-07-31T15:56:31Z</time>
      </trkpt>
      <trkpt lat="46.22524" lon="5.98565">
        <ele>414.95</ele>
        <time>2016-07-31T15:56:36Z</time>
      </trkpt>
      <trkpt lat="46.22532" lon="5.98548">
        <ele>414.95</ele>
        <time>2016-07-31T15:56:41Z</time>
      </trkpt>
      <trkpt lat="46.22541" lon="5.9853">
        <ele>415.91</ele>
        <time>2016-07-31T15:56:46Z</time>
      </trkpt>
      <trkpt lat="46.22549" lon="5.98519">
        <ele>415.91</ele>
        <time>2016-07-31T15:56:51Z</time>
      </trkpt>
      <trkpt lat="46.22556" lon="5.98506">
        <ele>416.87</ele>
        <time>2016-07-31T15:56:56Z</time>
      </trkpt>
      <trkpt lat="46.22565" lon="5.98493">
        <ele>417.35</ele>
        <time>2016-07-31T15:57:01Z</time>
      </trkpt>
      <trkpt lat="46.22575" lon="5.9848">
        <ele>417.35</ele>
        <time>2016-07-31T15:57:06Z</time>
      </trkpt>
      <trkpt lat="46.22585" lon="5.98468">
        <ele>417.83</ele>
        <time>2016-07-31T15:57:11Z</time>
      </trkpt>
      <trkpt lat="46.22595" lon="5.98457">
        <ele>418.31</ele>
        <time>2016-07-31T15:57:16Z</time>
      </trkpt>
      <trkpt lat="46.22606" lon="5.98444">
        <ele>419.27</ele>
        <time>2016-07-31T15:57:21Z</time>
      </trkpt>
      <trkpt lat="46.22618" lon="5.98431">
        <ele>419.27</ele>
        <time>2016-07-31T15:57:26Z</time>
      </trkpt>
      <trkpt lat="46.2263" lon="5.98418">
        <ele>420.23</ele>
        <time>2016-07-31T15:57:31Z</time>
      </trkpt>
      <trkpt lat="46.2264" lon="5.98408">
        <ele>420.23</ele>
        <time>2016-07-31T15:57:36Z</time>
      </trkpt>
      <trkpt lat="46.22653" lon="5.98398">
        <ele>420.71</ele>
        <time>2016-07-31T15:57:41Z</time>
      </trkpt>
      <trkpt lat="46.22666" lon="5.98386">
        <ele>421.68</ele>
        <time>2016-07-31T15:57:46Z</time>
      </trkpt>
      <trkpt lat="46.22678" lon="5.98378">
        <ele>422.16</ele>
        <time>2016-07-31T15:57:51Z</time>
      </trkpt>
      <trkpt lat="46.2269" lon="5.98368">
        <ele>422.64</ele>
        <time>2016-07-31T15:57:56Z</time>
      </trkpt>
      <trkpt lat="46.22703" lon="5.98358">
        <ele>422.64</ele>
        <time>2016-07-31T15:58:01Z</time>
      </trkpt>
      <trkpt lat="46.22717" lon="5.98349">
        <ele>422.64</ele>
        <time>2016-07-31T15:58:06Z</time>
      </trkpt>
      <trkpt lat="46.2273" lon="5.98341">
        <ele>422.64</ele>
        <time>2016-07-31T15:58:11Z</time>
      </trkpt>
      <trkpt lat="46.22744" lon="5.98332">
        <ele>422.16</ele>
        <time>2016-07-31T15:58:16Z</time>
      </trkpt>
      <trkpt lat="46.22755" lon="5.98319">
        <ele>421.68</ele>
        <time>2016-07-31T15:58:21Z</time>
      </trkpt>
      <trkpt lat="46.22766" lon="5.98304">
        <ele>422.16</ele>
        <time>2016-07-31T15:58:26Z</time>
      </trkpt>
      <trkpt lat="46.22775" lon="5.98289">
        <ele>422.64</ele>
        <time>2016-07-31T15:58:31Z</time>
      </trkpt>
      <trkpt lat="46.22787" lon="5.98272">
        <ele>422.16</ele>
        <time>2016-07-31T15:58:36Z</time>
      </trkpt>
      <trkpt lat="46.22799" lon="5.98256">
        <ele>422.64</ele>
        <time>2016-07-31T15:58:41Z</time>
      </trkpt>
      <trkpt lat="46.22813" lon="5.98243">
        <ele>422.16</ele>
        <time>2016-07-31T15:58:46Z</time>
      </trkpt>
      <trkpt lat="46.22828" lon="5.98237">
        <ele>423.12</ele>
        <time>2016-07-31T15:58:51Z</time>
      </trkpt>
      <trkpt lat="46.22845" lon="5.98235">
        <ele>423.6</ele>
        <time>2016-07-31T15:58:56Z</time>
      </trkpt>
      <trkpt lat="46.22859" lon="5.98229">
        <ele>423.6</ele>
        <time>2016-07-31T15:59:01Z</time>
      </trkpt>
      <trkpt lat="46.22872" lon="5.98218">
        <ele>423.6</ele>
        <time>2016-07-31T15:59:06Z</time>
      </trkpt>
      <trkpt lat="46.22887" lon="5.98207">
        <ele>424.08</ele>
        <time>2016-07-31T15:59:11Z</time>
      </trkpt>
      <trkpt lat="46.229" lon="5.98198">
        <ele>424.56</ele>
        <time>2016-07-31T15:59:16Z</time>
      </trkpt>
      <trkpt lat="46.22914" lon="5.98196">
        <ele>425.52</ele>
        <time>2016-07-31T15:59:21Z</time>
      </trkpt>
      <trkpt lat="46.22926" lon="5.98198">
        <ele>426.48</ele>
        <time>2016-07-31T15:59:26Z</time>
      </trkpt>
      <trkpt lat="46.22932" lon="5.98207">
        <ele>426.96</ele>
        <time>2016-07-31T15:59:31Z</time>
      </trkpt>
      <trkpt lat="46.22936" lon="5.98218">
        <ele>426.48</ele>
        <time>2016-07-31T15:59:36Z</time>
      </trkpt>
      <trkpt lat="46.22938" lon="5.98223">
        <ele>426.96</ele>
        <time>2016-07-31T15:59:41Z</time>
      </trkpt>
      <trkpt lat="46.22938" lon="5.98223">
        <ele>426.96</ele>
        <time>2016-07-31T15:59:46Z</time>
      </trkpt>
      <trkpt lat="46.22939" lon="5.98224">
        <ele>426.96</ele>
        <time>2016-07-31T15:59:51Z</time>
      </trkpt>
      <trkpt lat="46.22939" lon="5.98224">
        <ele>426.48</ele>
        <time>2016-07-31T15:59:56Z</time>
      </trkpt>
      <trkpt lat="46.2294" lon="5.98225">
        <ele>426</ele>
        <time>2016-07-31T16:00:01Z</time>
      </trkpt>
      <trkpt lat="46.22939" lon="5.98224">
        <ele>426</ele>
        <time>2016-07-31T16:00:06Z</time>
      </trkpt>
      <trkpt lat="46.22939" lon="5.98225">
        <ele>426.96</ele>
        <time>2016-07-31T16:00:11Z</time>
      </trkpt>
      <trkpt lat="46.22939" lon="5.98225">
        <ele>426.48</ele>
        <time>2016-07-31T16:00:16Z</time>
      </trkpt>
      <trkpt lat="46.22941" lon="5.98228">
        <ele>426.48</ele>
        <time>2016-07-31T16:00:21Z</time>
      </trkpt>
      <trkpt lat="46.22952" lon="5.98223">
        <ele>426.48</ele>
        <time>2016-07-31T16:00:26Z</time>
      </trkpt>
      <trkpt lat="46.22963" lon="5.98212">
        <ele>426</ele>
        <time>2016-07-31T16:00:31Z</time>
      </trkpt>
      <trkpt lat="46.22977" lon="5.98204">
        <ele>426.96</ele>
        <time>2016-07-31T16:00:36Z</time>
      </trkpt>
      <trkpt lat="46.22992" lon="5.98195">
        <ele>427.44</ele>
        <time>2016-07-31T16:00:41Z</time>
      </trkpt>
      <trkpt lat="46.23008" lon="5.98185">
        <ele>427.92</ele>
        <time>2016-07-31T16:00:46Z</time>
      </trkpt>
      <trkpt lat="46.23024" lon="5.98175">
        <ele>428.4</ele>
        <time>2016-07-31T16:00:51Z</time>
      </trkpt>
      <trkpt lat="46.23043" lon="5.98164">
        <ele>429.37</ele>
        <time>2016-07-31T16:00:56Z</time>
      </trkpt>
      <trkpt lat="46.23059" lon="5.98154">
        <ele>429.85</ele>
        <time>2016-07-31T16:01:01Z</time>
      </trkpt>
      <trkpt lat="46.23076" lon="5.98142">
        <ele>431.29</ele>
        <time>2016-07-31T16:01:06Z</time>
      </trkpt>
      <trkpt lat="46.23092" lon="5.98128">
        <ele>431.29</ele>
        <time>2016-07-31T16:01:11Z</time>
      </trkpt>
      <trkpt lat="46.23107" lon="5.9811">
        <ele>431.77</ele>
        <time>2016-07-31T16:01:16Z</time>
      </trkpt>
      <trkpt lat="46.23119" lon="5.98089">
        <ele>432.25</ele>
        <time>2016-07-31T16:01:21Z</time>
      </trkpt>
      <trkpt lat="46.23132" lon="5.98067">
        <ele>432.25</ele>
        <time>2016-07-31T16:01:26Z</time>
      </trkpt>
      <trkpt lat="46.23141" lon="5.98043">
        <ele>432.73</ele>
        <time>2016-07-31T16:01:31Z</time>
      </trkpt>
      <trkpt lat="46.23155" lon="5.98023">
        <ele>434.65</ele>
        <time>2016-07-31T16:01:36Z</time>
      </trkpt>
      <trkpt lat="46.23168" lon="5.98001">
        <ele>435.13</ele>
        <time>2016-07-31T16:01:41Z</time>
      </trkpt>
      <trkpt lat="46.2318" lon="5.97978">
        <ele>436.1</ele>
        <time>2016-07-31T16:01:46Z</time>
      </trkpt>
      <trkpt lat="46.23195" lon="5.97962">
        <ele>437.06</ele>
        <time>2016-07-31T16:01:51Z</time>
      </trkpt>
      <trkpt lat="46.23202" lon="5.97939">
        <ele>437.54</ele>
        <time>2016-07-31T16:01:56Z</time>
      </trkpt>
      <trkpt lat="46.23212" lon="5.97915">
        <ele>438.02</ele>
        <time>2016-07-31T16:02:01Z</time>
      </trkpt>
      <trkpt lat="46.23223" lon="5.97895">
        <ele>438.5</ele>
        <time>2016-07-31T16:02:06Z</time>
      </trkpt>
      <trkpt lat="46.23234" lon="5.97877">
        <ele>439.94</ele>
        <time>2016-07-31T16:02:11Z</time>
      </trkpt>
      <trkpt lat="46.23245" lon="5.97857">
        <ele>439.94</ele>
        <time>2016-07-31T16:02:16Z</time>
      </trkpt>
      <trkpt lat="46.2326" lon="5.97845">
        <ele>440.42</ele>
        <time>2016-07-31T16:02:21Z</time>
      </trkpt>
      <trkpt lat="46.23276" lon="5.97842">
        <ele>441.38</ele>
        <time>2016-07-31T16:02:26Z</time>
      </trkpt>
      <trkpt lat="46.23293" lon="5.97845">
        <ele>441.86</ele>
        <time>2016-07-31T16:02:31Z</time>
      </trkpt>
      <trkpt lat="46.2331" lon="5.97856">
        <ele>441.86</ele>
        <time>2016-07-31T16:02:36Z</time>
      </trkpt>
      <trkpt lat="46.23328" lon="5.97868">
        <ele>441.86</ele>
        <time>2016-07-31T16:02:41Z</time>
      </trkpt>
      <trkpt lat="46.23348" lon="5.97882">
        <ele>441.38</ele>
        <time>2016-07-31T16:02:46Z</time>
      </trkpt>
      <trkpt lat="46.23369" lon="5.97897">
        <ele>441.86</ele>
        <time>2016-07-31T16:02:51Z</time>
      </trkpt>
      <trkpt lat="46.23388" lon="5.97911">
        <ele>442.34</ele>
        <time>2016-07-31T16:02:56Z</time>
      </trkpt>
      <trkpt lat="46.23407" lon="5.97926">
        <ele>442.82</ele>
        <time>2016-07-31T16:03:01Z</time>
      </trkpt>
      <trkpt lat="46.23427" lon="5.97936">
        <ele>443.79</ele>
        <time>2016-07-31T16:03:06Z</time>
      </trkpt>
      <trkpt lat="46.23443" lon="5.97941">
        <ele>444.75</ele>
        <time>2016-07-31T16:03:11Z</time>
      </trkpt>
      <trkpt lat="46.23459" lon="5.97944">
        <ele>444.75</ele>
        <time>2016-07-31T16:03:16Z</time>
      </trkpt>
      <trkpt lat="46.23479" lon="5.97951">
        <ele>444.75</ele>
        <time>2016-07-31T16:03:21Z</time>
      </trkpt>
      <trkpt lat="46.235" lon="5.9796">
        <ele>443.79</ele>
        <time>2016-07-31T16:03:26Z</time>
      </trkpt>
      <trkpt lat="46.23521" lon="5.9797">
        <ele>443.79</ele>
        <time>2016-07-31T16:03:31Z</time>
      </trkpt>
      <trkpt lat="46.23543" lon="5.97983">
        <ele>443.31</ele>
        <time>2016-07-31T16:03:36Z</time>
      </trkpt>
      <trkpt lat="46.23563" lon="5.97996">
        <ele>443.31</ele>
        <time>2016-07-31T16:03:41Z</time>
      </trkpt>
      <trkpt lat="46.23583" lon="5.9801">
        <ele>442.82</ele>
        <time>2016-07-31T16:03:46Z</time>
      </trkpt>
      <trkpt lat="46.23604" lon="5.98025">
        <ele>443.31</ele>
        <time>2016-07-31T16:03:51Z</time>
      </trkpt>
      <trkpt lat="46.23624" lon="5.98039">
        <ele>443.79</ele>
        <time>2016-07-31T16:03:56Z</time>
      </trkpt>
      <trkpt lat="46.23643" lon="5.98051">
        <ele>444.75</ele>
        <time>2016-07-31T16:04:01Z</time>
      </trkpt>
      <trkpt lat="46.23661" lon="5.98063">
        <ele>445.71</ele>
        <time>2016-07-31T16:04:06Z</time>
      </trkpt>
      <trkpt lat="46.2368" lon="5.98075">
        <ele>447.15</ele>
        <time>2016-07-31T16:04:11Z</time>
      </trkpt>
      <trkpt lat="46.23698" lon="5.98086">
        <ele>447.63</ele>
        <time>2016-07-31T16:04:16Z</time>
      </trkpt>
      <trkpt lat="46.23715" lon="5.98101">
        <ele>448.59</ele>
        <time>2016-07-31T16:04:21Z</time>
      </trkpt>
      <trkpt lat="46.23731" lon="5.98113">
        <ele>449.07</ele>
        <time>2016-07-31T16:04:26Z</time>
      </trkpt>
      <trkpt lat="46.23748" lon="5.98121">
        <ele>449.55</ele>
        <time>2016-07-31T16:04:31Z</time>
      </trkpt>
      <trkpt lat="46.23764" lon="5.98125">
        <ele>450.52</ele>
        <time>2016-07-31T16:04:36Z</time>
      </trkpt>
      <trkpt lat="46.23775" lon="5.98125">
        <ele>451</ele>
        <time>2016-07-31T16:04:41Z</time>
      </trkpt>
      <trkpt lat="46.23788" lon="5.9813">
        <ele>450.52</ele>
        <time>2016-07-31T16:04:46Z</time>
      </trkpt>
      <trkpt lat="46.23808" lon="5.98129">
        <ele>449.55</ele>
        <time>2016-07-31T16:04:51Z</time>
      </trkpt>
      <trkpt lat="46.23825" lon="5.98115">
        <ele>449.55</ele>
        <time>2016-07-31T16:04:56Z</time>
      </trkpt>
      <trkpt lat="46.23841" lon="5.98091">
        <ele>448.11</ele>
        <time>2016-07-31T16:05:01Z</time>
      </trkpt>
      <trkpt lat="46.23863" lon="5.9807">
        <ele>448.59</ele>
        <time>2016-07-31T16:05:06Z</time>
      </trkpt>
      <trkpt lat="46.23882" lon="5.98051">
        <ele>449.55</ele>
        <time>2016-07-31T16:05:11Z</time>
      </trkpt>
      <trkpt lat="46.23899" lon="5.98034">
        <ele>451</ele>
        <time>2016-07-31T16:05:16Z</time>
      </trkpt>
      <trkpt lat="46.23919" lon="5.98029">
        <ele>451.48</ele>
        <time>2016-07-31T16:05:21Z</time>
      </trkpt>
      <trkpt lat="46.23939" lon="5.98028">
        <ele>451.96</ele>
        <time>2016-07-31T16:05:26Z</time>
      </trkpt>
      <trkpt lat="46.23957" lon="5.9804">
        <ele>452.44</ele>
        <time>2016-07-31T16:05:31Z</time>
      </trkpt>
      <trkpt lat="46.23971" lon="5.9806">
        <ele>452.92</ele>
        <time>2016-07-31T16:05:36Z</time>
      </trkpt>
      <trkpt lat="46.23984" lon="5.98081">
        <ele>453.88</ele>
        <time>2016-07-31T16:05:41Z</time>
      </trkpt>
      <trkpt lat="46.23996" lon="5.98101">
        <ele>454.36</ele>
        <time>2016-07-31T16:05:46Z</time>
      </trkpt>
      <trkpt lat="46.2401" lon="5.98122">
        <ele>455.8</ele>
        <time>2016-07-31T16:05:51Z</time>
      </trkpt>
      <trkpt lat="46.24023" lon="5.98141">
        <ele>456.76</ele>
        <time>2016-07-31T16:05:56Z</time>
      </trkpt>
      <trkpt lat="46.24035" lon="5.98158">
        <ele>457.24</ele>
        <time>2016-07-31T16:06:01Z</time>
      </trkpt>
      <trkpt lat="46.24048" lon="5.98173">
        <ele>457.72</ele>
        <time>2016-07-31T16:06:06Z</time>
      </trkpt>
      <trkpt lat="46.24064" lon="5.98185">
        <ele>457.72</ele>
        <time>2016-07-31T16:06:11Z</time>
      </trkpt>
      <trkpt lat="46.24079" lon="5.98196">
        <ele>456.76</ele>
        <time>2016-07-31T16:06:16Z</time>
      </trkpt>
      <trkpt lat="46.24091" lon="5.98204">
        <ele>456.76</ele>
        <time>2016-07-31T16:06:21Z</time>
      </trkpt>
      <trkpt lat="46.24108" lon="5.98211">
        <ele>456.76</ele>
        <time>2016-07-31T16:06:26Z</time>
      </trkpt>
      <trkpt lat="46.24128" lon="5.98222">
        <ele>456.28</ele>
        <time>2016-07-31T16:06:31Z</time>
      </trkpt>
      <trkpt lat="46.24147" lon="5.98231">
        <ele>456.76</ele>
        <time>2016-07-31T16:06:36Z</time>
      </trkpt>
      <trkpt lat="46.24167" lon="5.98241">
        <ele>456.76</ele>
        <time>2016-07-31T16:06:41Z</time>
      </trkpt>
      <trkpt lat="46.24188" lon="5.98252">
        <ele>456.76</ele>
        <time>2016-07-31T16:06:46Z</time>
      </trkpt>
      <trkpt lat="46.2421" lon="5.98263">
        <ele>456.28</ele>
        <time>2016-07-31T16:06:51Z</time>
      </trkpt>
      <trkpt lat="46.24234" lon="5.98275">
        <ele>455.8</ele>
        <time>2016-07-31T16:06:56Z</time>
      </trkpt>
      <trkpt lat="46.24262" lon="5.98287">
        <ele>455.8</ele>
        <time>2016-07-31T16:07:01Z</time>
      </trkpt>
      <trkpt lat="46.24288" lon="5.983">
        <ele>456.28</ele>
        <time>2016-07-31T16:07:06Z</time>
      </trkpt>
      <trkpt lat="46.24314" lon="5.98311">
        <ele>456.28</ele>
        <time>2016-07-31T16:07:11Z</time>
      </trkpt>
      <trkpt lat="46.24341" lon="5.98319">
        <ele>456.28</ele>
        <time>2016-07-31T16:07:16Z</time>
      </trkpt>
      <trkpt lat="46.24368" lon="5.98325">
        <ele>455.8</ele>
        <time>2016-07-31T16:07:21Z</time>
      </trkpt>
      <trkpt lat="46.24393" lon="5.9833">
        <ele>456.28</ele>
        <time>2016-07-31T16:07:26Z</time>
      </trkpt>
      <trkpt lat="46.24415" lon="5.98341">
        <ele>456.28</ele>
        <time>2016-07-31T16:07:31Z</time>
      </trkpt>
      <trkpt lat="46.24434" lon="5.98363">
        <ele>455.8</ele>
        <time>2016-07-31T16:07:36Z</time>
      </trkpt>
      <trkpt lat="46.24446" lon="5.98394">
        <ele>456.28</ele>
        <time>2016-07-31T16:07:41Z</time>
      </trkpt>
      <trkpt lat="46.24452" lon="5.98431">
        <ele>456.76</ele>
        <time>2016-07-31T16:07:46Z</time>
      </trkpt>
      <trkpt lat="46.24464" lon="5.98456">
        <ele>458.21</ele>
        <time>2016-07-31T16:07:51Z</time>
      </trkpt>
      <trkpt lat="46.24477" lon="5.98476">
        <ele>459.17</ele>
        <time>2016-07-31T16:07:56Z</time>
      </trkpt>
      <trkpt lat="46.24486" lon="5.98504">
        <ele>457.72</ele>
        <time>2016-07-31T16:08:01Z</time>
      </trkpt>
      <trkpt lat="46.2449" lon="5.98551">
        <ele>455.8</ele>
        <time>2016-07-31T16:08:06Z</time>
      </trkpt>
      <trkpt lat="46.24492" lon="5.98607">
        <ele>453.88</ele>
        <time>2016-07-31T16:08:11Z</time>
      </trkpt>
      <trkpt lat="46.24509" lon="5.98665">
        <ele>451</ele>
        <time>2016-07-31T16:08:16Z</time>
      </trkpt>
      <trkpt lat="46.24542" lon="5.98721">
        <ele>449.55</ele>
        <time>2016-07-31T16:08:21Z</time>
      </trkpt>
      <trkpt lat="46.24582" lon="5.98769">
        <ele>447.15</ele>
        <time>2016-07-31T16:08:26Z</time>
      </trkpt>
      <trkpt lat="46.24622" lon="5.98814">
        <ele>445.23</ele>
        <time>2016-07-31T16:08:31Z</time>
      </trkpt>
      <trkpt lat="46.24654" lon="5.98858">
        <ele>445.23</ele>
        <time>2016-07-31T16:08:36Z</time>
      </trkpt>
      <trkpt lat="46.24683" lon="5.98895">
        <ele>445.71</ele>
        <time>2016-07-31T16:08:41Z</time>
      </trkpt>
      <trkpt lat="46.24709" lon="5.98925">
        <ele>446.19</ele>
        <time>2016-07-31T16:08:46Z</time>
      </trkpt>
      <trkpt lat="46.24731" lon="5.98947">
        <ele>446.67</ele>
        <time>2016-07-31T16:08:51Z</time>
      </trkpt>
      <trkpt lat="46.24746" lon="5.9897">
        <ele>447.15</ele>
        <time>2016-07-31T16:08:56Z</time>
      </trkpt>
      <trkpt lat="46.24759" lon="5.98986">
        <ele>447.63</ele>
        <time>2016-07-31T16:09:01Z</time>
      </trkpt>
      <trkpt lat="46.24769" lon="5.99007">
        <ele>447.15</ele>
        <time>2016-07-31T16:09:06Z</time>
      </trkpt>
      <trkpt lat="46.2478" lon="5.99031">
        <ele>447.15</ele>
        <time>2016-07-31T16:09:11Z</time>
      </trkpt>
      <trkpt lat="46.24791" lon="5.99057">
        <ele>446.19</ele>
        <time>2016-07-31T16:09:16Z</time>
      </trkpt>
      <trkpt lat="46.24803" lon="5.99083">
        <ele>446.67</ele>
        <time>2016-07-31T16:09:21Z</time>
      </trkpt>
      <trkpt lat="46.24816" lon="5.99113">
        <ele>445.23</ele>
        <time>2016-07-31T16:09:26Z</time>
      </trkpt>
      <trkpt lat="46.24831" lon="5.99147">
        <ele>444.27</ele>
        <time>2016-07-31T16:09:31Z</time>
      </trkpt>
      <trkpt lat="46.2485" lon="5.99191">
        <ele>443.79</ele>
        <time>2016-07-31T16:09:36Z</time>
      </trkpt>
      <trkpt lat="46.24872" lon="5.99239">
        <ele>442.34</ele>
        <time>2016-07-31T16:09:41Z</time>
      </trkpt>
      <trkpt lat="46.24892" lon="5.9929">
        <ele>441.38</ele>
        <time>2016-07-31T16:09:46Z</time>
      </trkpt>
      <trkpt lat="46.24914" lon="5.9934">
        <ele>440.42</ele>
        <time>2016-07-31T16:09:51Z</time>
      </trkpt>
      <trkpt lat="46.24936" lon="5.99389">
        <ele>439.46</ele>
        <time>2016-07-31T16:09:56Z</time>
      </trkpt>
      <trkpt lat="46.24957" lon="5.99436">
        <ele>439.46</ele>
        <time>2016-07-31T16:10:01Z</time>
      </trkpt>
      <trkpt lat="46.24976" lon="5.99481">
        <ele>438.5</ele>
        <time>2016-07-31T16:10:06Z</time>
      </trkpt>
      <trkpt lat="46.24996" lon="5.99525">
        <ele>438.5</ele>
        <time>2016-07-31T16:10:11Z</time>
      </trkpt>
      <trkpt lat="46.25012" lon="5.99561">
        <ele>438.5</ele>
        <time>2016-07-31T16:10:16Z</time>
      </trkpt>
      <trkpt lat="46.25026" lon="5.99592">
        <ele>438.98</ele>
        <time>2016-07-31T16:10:21Z</time>
      </trkpt>
      <trkpt lat="46.25038" lon="5.9962">
        <ele>438.02</ele>
        <time>2016-07-31T16:10:26Z</time>
      </trkpt>
      <trkpt lat="46.2505" lon="5.99648">
        <ele>437.06</ele>
        <time>2016-07-31T16:10:31Z</time>
      </trkpt>
      <trkpt lat="46.25067" lon="5.99679">
        <ele>436.58</ele>
        <time>2016-07-31T16:10:36Z</time>
      </trkpt>
      <trkpt lat="46.2508" lon="5.99708">
        <ele>436.1</ele>
        <time>2016-07-31T16:10:41Z</time>
      </trkpt>
      <trkpt lat="46.25093" lon="5.99744">
        <ele>435.61</ele>
        <time>2016-07-31T16:10:46Z</time>
      </trkpt>
      <trkpt lat="46.25107" lon="5.99785">
        <ele>435.61</ele>
        <time>2016-07-31T16:10:51Z</time>
      </trkpt>
      <trkpt lat="46.25126" lon="5.9982">
        <ele>435.61</ele>
        <time>2016-07-31T16:10:56Z</time>
      </trkpt>
      <trkpt lat="46.25154" lon="5.99844">
        <ele>436.1</ele>
        <time>2016-07-31T16:11:01Z</time>
      </trkpt>
      <trkpt lat="46.25183" lon="5.99862">
        <ele>437.54</ele>
        <time>2016-07-31T16:11:06Z</time>
      </trkpt>
      <trkpt lat="46.25209" lon="5.9988">
        <ele>438.02</ele>
        <time>2016-07-31T16:11:11Z</time>
      </trkpt>
      <trkpt lat="46.25231" lon="5.99902">
        <ele>439.46</ele>
        <time>2016-07-31T16:11:16Z</time>
      </trkpt>
      <trkpt lat="46.25251" lon="5.99919">
        <ele>439.46</ele>
        <time>2016-07-31T16:11:21Z</time>
      </trkpt>
      <trkpt lat="46.2527" lon="5.99935">
        <ele>439.46</ele>
        <time>2016-07-31T16:11:26Z</time>
      </trkpt>
      <trkpt lat="46.2529" lon="5.99955">
        <ele>439.46</ele>
        <time>2016-07-31T16:11:31Z</time>
      </trkpt>
      <trkpt lat="46.25312" lon="5.99974">
        <ele>439.46</ele>
        <time>2016-07-31T16:11:36Z</time>
      </trkpt>
      <trkpt lat="46.25335" lon="5.99996">
        <ele>438.5</ele>
        <time>2016-07-31T16:11:41Z</time>
      </trkpt>
      <trkpt lat="46.2535" lon="6.00035">
        <ele>437.54</ele>
        <time>2016-07-31T16:11:46Z</time>
      </trkpt>
      <trkpt lat="46.25339" lon="6.00079">
        <ele>435.61</ele>
        <time>2016-07-31T16:11:51Z</time>
      </trkpt>
      <trkpt lat="46.25318" lon="6.00112">
        <ele>434.17</ele>
        <time>2016-07-31T16:11:56Z</time>
      </trkpt>
      <trkpt lat="46.25319" lon="6.00149">
        <ele>434.17</ele>
        <time>2016-07-31T16:12:01Z</time>
      </trkpt>
      <trkpt lat="46.25331" lon="6.00179">
        <ele>434.17</ele>
        <time>2016-07-31T16:12:06Z</time>
      </trkpt>
      <trkpt lat="46.25347" lon="6.00202">
        <ele>435.13</ele>
        <time>2016-07-31T16:12:11Z</time>
      </trkpt>
      <trkpt lat="46.25359" lon="6.00223">
        <ele>435.61</ele>
        <time>2016-07-31T16:12:16Z</time>
      </trkpt>
      <trkpt lat="46.25368" lon="6.00245">
        <ele>437.06</ele>
        <time>2016-07-31T16:12:21Z</time>
      </trkpt>
      <trkpt lat="46.25374" lon="6.00266">
        <ele>437.54</ele>
        <time>2016-07-31T16:12:26Z</time>
      </trkpt>
      <trkpt lat="46.25376" lon="6.00287">
        <ele>437.06</ele>
        <time>2016-07-31T16:12:31Z</time>
      </trkpt>
      <trkpt lat="46.25376" lon="6.00308">
        <ele>437.54</ele>
        <time>2016-07-31T16:12:36Z</time>
      </trkpt>
      <trkpt lat="46.25377" lon="6.00335">
        <ele>437.06</ele>
        <time>2016-07-31T16:12:41Z</time>
      </trkpt>
      <trkpt lat="46.25378" lon="6.00366">
        <ele>437.54</ele>
        <time>2016-07-31T16:12:46Z</time>
      </trkpt>
      <trkpt lat="46.25387" lon="6.00397">
        <ele>437.06</ele>
        <time>2016-07-31T16:12:51Z</time>
      </trkpt>
      <trkpt lat="46.25397" lon="6.00425">
        <ele>437.54</ele>
        <time>2016-07-31T16:12:56Z</time>
      </trkpt>
      <trkpt lat="46.25407" lon="6.00454">
        <ele>437.06</ele>
        <time>2016-07-31T16:13:01Z</time>
      </trkpt>
      <trkpt lat="46.25425" lon="6.00477">
        <ele>437.54</ele>
        <time>2016-07-31T16:13:06Z</time>
      </trkpt>
      <trkpt lat="46.25442" lon="6.00497">
        <ele>438.02</ele>
        <time>2016-07-31T16:13:11Z</time>
      </trkpt>
      <trkpt lat="46.25463" lon="6.00507">
        <ele>438.5</ele>
        <time>2016-07-31T16:13:16Z</time>
      </trkpt>
      <trkpt lat="46.25484" lon="6.00504">
        <ele>438.98</ele>
        <time>2016-07-31T16:13:21Z</time>
      </trkpt>
      <trkpt lat="46.25502" lon="6.00505">
        <ele>439.46</ele>
        <time>2016-07-31T16:13:26Z</time>
      </trkpt>
      <trkpt lat="46.2552" lon="6.00507">
        <ele>439.94</ele>
        <time>2016-07-31T16:13:31Z</time>
      </trkpt>
      <trkpt lat="46.25538" lon="6.00515">
        <ele>440.9</ele>
        <time>2016-07-31T16:13:36Z</time>
      </trkpt>
      <trkpt lat="46.25551" lon="6.00526">
        <ele>440.9</ele>
        <time>2016-07-31T16:13:41Z</time>
      </trkpt>
      <trkpt lat="46.25562" lon="6.00542">
        <ele>440.9</ele>
        <time>2016-07-31T16:13:46Z</time>
      </trkpt>
      <trkpt lat="46.25572" lon="6.00563">
        <ele>440.9</ele>
        <time>2016-07-31T16:13:51Z</time>
      </trkpt>
      <trkpt lat="46.2557" lon="6.00593">
        <ele>440.42</ele>
        <time>2016-07-31T16:13:56Z</time>
      </trkpt>
      <trkpt lat="46.25558" lon="6.00623">
        <ele>438.98</ele>
        <time>2016-07-31T16:14:01Z</time>
      </trkpt>
      <trkpt lat="46.25545" lon="6.00651">
        <ele>438.02</ele>
        <time>2016-07-31T16:14:06Z</time>
      </trkpt>
      <trkpt lat="46.25529" lon="6.00678">
        <ele>437.54</ele>
        <time>2016-07-31T16:14:11Z</time>
      </trkpt>
      <trkpt lat="46.25513" lon="6.0071">
        <ele>436.1</ele>
        <time>2016-07-31T16:14:16Z</time>
      </trkpt>
      <trkpt lat="46.25493" lon="6.00742">
        <ele>435.61</ele>
        <time>2016-07-31T16:14:21Z</time>
      </trkpt>
      <trkpt lat="46.25473" lon="6.00776">
        <ele>435.13</ele>
        <time>2016-07-31T16:14:26Z</time>
      </trkpt>
      <trkpt lat="46.25473" lon="6.00818">
        <ele>434.17</ele>
        <time>2016-07-31T16:14:31Z</time>
      </trkpt>
      <trkpt lat="46.2549" lon="6.00851">
        <ele>434.17</ele>
        <time>2016-07-31T16:14:36Z</time>
      </trkpt>
      <trkpt lat="46.25504" lon="6.00882">
        <ele>434.17</ele>
        <time>2016-07-31T16:14:41Z</time>
      </trkpt>
      <trkpt lat="46.25516" lon="6.00914">
        <ele>433.21</ele>
        <time>2016-07-31T16:14:46Z</time>
      </trkpt>
      <trkpt lat="46.25516" lon="6.00954">
        <ele>432.25</ele>
        <time>2016-07-31T16:14:51Z</time>
      </trkpt>
      <trkpt lat="46.25497" lon="6.00989">
        <ele>431.77</ele>
        <time>2016-07-31T16:14:56Z</time>
      </trkpt>
      <trkpt lat="46.255" lon="6.01032">
        <ele>430.81</ele>
        <time>2016-07-31T16:15:01Z</time>
      </trkpt>
      <trkpt lat="46.25518" lon="6.01067">
        <ele>429.85</ele>
        <time>2016-07-31T16:15:06Z</time>
      </trkpt>
      <trkpt lat="46.25535" lon="6.011">
        <ele>429.85</ele>
        <time>2016-07-31T16:15:11Z</time>
      </trkpt>
      <trkpt lat="46.25555" lon="6.01128">
        <ele>428.4</ele>
        <time>2016-07-31T16:15:16Z</time>
      </trkpt>
      <trkpt lat="46.25577" lon="6.01152">
        <ele>428.4</ele>
        <time>2016-07-31T16:15:21Z</time>
      </trkpt>
      <trkpt lat="46.25595" lon="6.0118">
        <ele>427.92</ele>
        <time>2016-07-31T16:15:26Z</time>
      </trkpt>
      <trkpt lat="46.25598" lon="6.01215">
        <ele>427.92</ele>
        <time>2016-07-31T16:15:31Z</time>
      </trkpt>
      <trkpt lat="46.25593" lon="6.01249">
        <ele>427.44</ele>
        <time>2016-07-31T16:15:36Z</time>
      </trkpt>
      <trkpt lat="46.25586" lon="6.01283">
        <ele>427.92</ele>
        <time>2016-07-31T16:15:41Z</time>
      </trkpt>
      <trkpt lat="46.25583" lon="6.01318">
        <ele>427.44</ele>
        <time>2016-07-31T16:15:46Z</time>
      </trkpt>
      <trkpt lat="46.25585" lon="6.01353">
        <ele>426.96</ele>
        <time>2016-07-31T16:15:51Z</time>
      </trkpt>
      <trkpt lat="46.25591" lon="6.01388">
        <ele>426.96</ele>
        <time>2016-07-31T16:15:56Z</time>
      </trkpt>
      <trkpt lat="46.25593" lon="6.01424">
        <ele>426.96</ele>
        <time>2016-07-31T16:16:01Z</time>
      </trkpt>
      <trkpt lat="46.25596" lon="6.01456">
        <ele>427.44</ele>
        <time>2016-07-31T16:16:06Z</time>
      </trkpt>
      <trkpt lat="46.25606" lon="6.01484">
        <ele>426.96</ele>
        <time>2016-07-31T16:16:11Z</time>
      </trkpt>
      <trkpt lat="46.25625" lon="6.01506">
        <ele>426.48</ele>
        <time>2016-07-31T16:16:16Z</time>
      </trkpt>
      <trkpt lat="46.25645" lon="6.01518">
        <ele>426.96</ele>
        <time>2016-07-31T16:16:21Z</time>
      </trkpt>
      <trkpt lat="46.25666" lon="6.01526">
        <ele>427.44</ele>
        <time>2016-07-31T16:16:26Z</time>
      </trkpt>
      <trkpt lat="46.25687" lon="6.01535">
        <ele>428.4</ele>
        <time>2016-07-31T16:16:31Z</time>
      </trkpt>
      <trkpt lat="46.25705" lon="6.01552">
        <ele>428.4</ele>
        <time>2016-07-31T16:16:36Z</time>
      </trkpt>
      <trkpt lat="46.25723" lon="6.0157">
        <ele>429.37</ele>
        <time>2016-07-31T16:16:41Z</time>
      </trkpt>
      <trkpt lat="46.25741" lon="6.01586">
        <ele>429.37</ele>
        <time>2016-07-31T16:16:46Z</time>
      </trkpt>
      <trkpt lat="46.25757" lon="6.01603">
        <ele>430.81</ele>
        <time>2016-07-31T16:16:51Z</time>
      </trkpt>
      <trkpt lat="46.25774" lon="6.01618">
        <ele>431.29</ele>
        <time>2016-07-31T16:16:56Z</time>
      </trkpt>
      <trkpt lat="46.25792" lon="6.01633">
        <ele>431.77</ele>
        <time>2016-07-31T16:17:01Z</time>
      </trkpt>
      <trkpt lat="46.25808" lon="6.01647">
        <ele>432.25</ele>
        <time>2016-07-31T16:17:06Z</time>
      </trkpt>
      <trkpt lat="46.25823" lon="6.01661">
        <ele>432.25</ele>
        <time>2016-07-31T16:17:11Z</time>
      </trkpt>
      <trkpt lat="46.25835" lon="6.01674">
        <ele>432.73</ele>
        <time>2016-07-31T16:17:16Z</time>
      </trkpt>
      <trkpt lat="46.2585" lon="6.01686">
        <ele>433.21</ele>
        <time>2016-07-31T16:17:21Z</time>
      </trkpt>
      <trkpt lat="46.25863" lon="6.01698">
        <ele>433.21</ele>
        <time>2016-07-31T16:17:26Z</time>
      </trkpt>
      <trkpt lat="46.25872" lon="6.01706">
        <ele>433.21</ele>
        <time>2016-07-31T16:17:31Z</time>
      </trkpt>
      <trkpt lat="46.25882" lon="6.01716">
        <ele>433.69</ele>
        <time>2016-07-31T16:17:36Z</time>
      </trkpt>
      <trkpt lat="46.25896" lon="6.0173">
        <ele>433.21</ele>
        <time>2016-07-31T16:17:41Z</time>
      </trkpt>
      <trkpt lat="46.25911" lon="6.01748">
        <ele>432.73</ele>
        <time>2016-07-31T16:17:46Z</time>
      </trkpt>
      <trkpt lat="46.25917" lon="6.01776">
        <ele>432.25</ele>
        <time>2016-07-31T16:17:51Z</time>
      </trkpt>
      <trkpt lat="46.25902" lon="6.01803">
        <ele>431.29</ele>
        <time>2016-07-31T16:17:56Z</time>
      </trkpt>
      <trkpt lat="46.25888" lon="6.01828">
        <ele>430.81</ele>
        <time>2016-07-31T16:18:01Z</time>
      </trkpt>
      <trkpt lat="46.25882" lon="6.01856">
        <ele>430.81</ele>
        <time>2016-07-31T16:18:06Z</time>
      </trkpt>
      <trkpt lat="46.25889" lon="6.01886">
        <ele>430.33</ele>
        <time>2016-07-31T16:18:11Z</time>
      </trkpt>
      <trkpt lat="46.25897" lon="6.01913">
        <ele>430.33</ele>
        <time>2016-07-31T16:18:16Z</time>
      </trkpt>
      <trkpt lat="46.25905" lon="6.01934">
        <ele>429.85</ele>
        <time>2016-07-31T16:18:21Z</time>
      </trkpt>
      <trkpt lat="46.25905" lon="6.0195">
        <ele>430.33</ele>
        <time>2016-07-31T16:18:26Z</time>
      </trkpt>
      <trkpt lat="46.25893" lon="6.01955">
        <ele>429.85</ele>
        <time>2016-07-31T16:18:31Z</time>
      </trkpt>
      <trkpt lat="46.2588" lon="6.01962">
        <ele>430.33</ele>
        <time>2016-07-31T16:18:36Z</time>
      </trkpt>
      <trkpt lat="46.25867" lon="6.0197">
        <ele>429.85</ele>
        <time>2016-07-31T16:18:41Z</time>
      </trkpt>
      <trkpt lat="46.25854" lon="6.01986">
        <ele>429.37</ele>
        <time>2016-07-31T16:18:46Z</time>
      </trkpt>
      <trkpt lat="46.2584" lon="6.02004">
        <ele>428.4</ele>
        <time>2016-07-31T16:18:51Z</time>
      </trkpt>
      <trkpt lat="46.25826" lon="6.02023">
        <ele>427.92</ele>
        <time>2016-07-31T16:18:56Z</time>
      </trkpt>
      <trkpt lat="46.25811" lon="6.02045">
        <ele>427.44</ele>
        <time>2016-07-31T16:19:01Z</time>
      </trkpt>
      <trkpt lat="46.25801" lon="6.02066">
        <ele>426.96</ele>
        <time>2016-07-31T16:19:06Z</time>
      </trkpt>
      <trkpt lat="46.25792" lon="6.02085">
        <ele>426.96</ele>
        <time>2016-07-31T16:19:11Z</time>
      </trkpt>
      <trkpt lat="46.25784" lon="6.02106">
        <ele>427.44</ele>
        <time>2016-07-31T16:19:16Z</time>
      </trkpt>
      <trkpt lat="46.25774" lon="6.02125">
        <ele>426.96</ele>
        <time>2016-07-31T16:19:21Z</time>
      </trkpt>
      <trkpt lat="46.25765" lon="6.02145">
        <ele>426.96</ele>
        <time>2016-07-31T16:19:26Z</time>
      </trkpt>
      <trkpt lat="46.25759" lon="6.02163">
        <ele>426.96</ele>
        <time>2016-07-31T16:19:31Z</time>
      </trkpt>
      <trkpt lat="46.25752" lon="6.02182">
        <ele>426.48</ele>
        <time>2016-07-31T16:19:36Z</time>
      </trkpt>
      <trkpt lat="46.25753" lon="6.02208">
        <ele>425.52</ele>
        <time>2016-07-31T16:19:41Z</time>
      </trkpt>
      <trkpt lat="46.25757" lon="6.02232">
        <ele>424.56</ele>
        <time>2016-07-31T16:19:46Z</time>
      </trkpt>
      <trkpt lat="46.25744" lon="6.02239">
        <ele>424.08</ele>
        <time>2016-07-31T16:19:51Z</time>
      </trkpt>
      <trkpt lat="46.25738" lon="6.02234">
        <ele>423.6</ele>
        <time>2016-07-31T16:19:56Z</time>
      </trkpt>
      <trkpt lat="46.2573" lon="6.02224">
        <ele>423.6</ele>
        <time>2016-07-31T16:20:01Z</time>
      </trkpt>
      <trkpt lat="46.25719" lon="6.02211">
        <ele>423.6</ele>
        <time>2016-07-31T16:20:06Z</time>
      </trkpt>
      <trkpt lat="46.25705" lon="6.02197">
        <ele>423.6</ele>
        <time>2016-07-31T16:20:11Z</time>
      </trkpt>
      <trkpt lat="46.25692" lon="6.02183">
        <ele>423.6</ele>
        <time>2016-07-31T16:20:16Z</time>
      </trkpt>
      <trkpt lat="46.2568" lon="6.02171">
        <ele>423.6</ele>
        <time>2016-07-31T16:20:21Z</time>
      </trkpt>
      <trkpt lat="46.25667" lon="6.02158">
        <ele>423.6</ele>
        <time>2016-07-31T16:20:26Z</time>
      </trkpt>
      <trkpt lat="46.25655" lon="6.02143">
        <ele>423.6</ele>
        <time>2016-07-31T16:20:31Z</time>
      </trkpt>
      <trkpt lat="46.25642" lon="6.02127">
        <ele>423.6</ele>
        <time>2016-07-31T16:20:36Z</time>
      </trkpt>
      <trkpt lat="46.25629" lon="6.02106">
        <ele>422.64</ele>
        <time>2016-07-31T16:20:41Z</time>
      </trkpt>
      <trkpt lat="46.25616" lon="6.02079">
        <ele>422.64</ele>
        <time>2016-07-31T16:20:46Z</time>
      </trkpt>
      <trkpt lat="46.25595" lon="6.02045">
        <ele>422.16</ele>
        <time>2016-07-31T16:20:51Z</time>
      </trkpt>
      <trkpt lat="46.25576" lon="6.02012">
        <ele>421.19</ele>
        <time>2016-07-31T16:20:56Z</time>
      </trkpt>
      <trkpt lat="46.25558" lon="6.01979">
        <ele>420.23</ele>
        <time>2016-07-31T16:21:01Z</time>
      </trkpt>
      <trkpt lat="46.25541" lon="6.01952">
        <ele>419.75</ele>
        <time>2016-07-31T16:21:06Z</time>
      </trkpt>
      <trkpt lat="46.25528" lon="6.01931">
        <ele>419.27</ele>
        <time>2016-07-31T16:21:11Z</time>
      </trkpt>
      <trkpt lat="46.25525" lon="6.01912">
        <ele>419.27</ele>
        <time>2016-07-31T16:21:16Z</time>
      </trkpt>
      <trkpt lat="46.25514" lon="6.01895">
        <ele>418.79</ele>
        <time>2016-07-31T16:21:21Z</time>
      </trkpt>
      <trkpt lat="46.25505" lon="6.01887">
        <ele>418.79</ele>
        <time>2016-07-31T16:21:26Z</time>
      </trkpt>
      <trkpt lat="46.25492" lon="6.01896">
        <ele>418.31</ele>
        <time>2016-07-31T16:21:31Z</time>
      </trkpt>
      <trkpt lat="46.2548" lon="6.01913">
        <ele>417.83</ele>
        <time>2016-07-31T16:21:36Z</time>
      </trkpt>
      <trkpt lat="46.25468" lon="6.01932">
        <ele>417.83</ele>
        <time>2016-07-31T16:21:41Z</time>
      </trkpt>
      <trkpt lat="46.25454" lon="6.0195">
        <ele>417.35</ele>
        <time>2016-07-31T16:21:46Z</time>
      </trkpt>
      <trkpt lat="46.25442" lon="6.01966">
        <ele>416.87</ele>
        <time>2016-07-31T16:21:51Z</time>
      </trkpt>
      <trkpt lat="46.25431" lon="6.01982">
        <ele>416.87</ele>
        <time>2016-07-31T16:21:56Z</time>
      </trkpt>
      <trkpt lat="46.2542" lon="6.01999">
        <ele>417.35</ele>
        <time>2016-07-31T16:22:01Z</time>
      </trkpt>
      <trkpt lat="46.25407" lon="6.02018">
        <ele>416.87</ele>
        <time>2016-07-31T16:22:06Z</time>
      </trkpt>
      <trkpt lat="46.25394" lon="6.02037">
        <ele>416.87</ele>
        <time>2016-07-31T16:22:11Z</time>
      </trkpt>
      <trkpt lat="46.25377" lon="6.02047">
        <ele>416.39</ele>
        <time>2016-07-31T16:22:16Z</time>
      </trkpt>
      <trkpt lat="46.25362" lon="6.02031">
        <ele>415.43</ele>
        <time>2016-07-31T16:22:21Z</time>
      </trkpt>
      <trkpt lat="46.25349" lon="6.02012">
        <ele>415.43</ele>
        <time>2016-07-31T16:22:26Z</time>
      </trkpt>
      <trkpt lat="46.25333" lon="6.01994">
        <ele>414.47</ele>
        <time>2016-07-31T16:22:31Z</time>
      </trkpt>
      <trkpt lat="46.25318" lon="6.02012">
        <ele>414.47</ele>
        <time>2016-07-31T16:22:36Z</time>
      </trkpt>
      <trkpt lat="46.25303" lon="6.02039">
        <ele>414.47</ele>
        <time>2016-07-31T16:22:41Z</time>
      </trkpt>
      <trkpt lat="46.25288" lon="6.02066">
        <ele>414.47</ele>
        <time>2016-07-31T16:22:46Z</time>
      </trkpt>
      <trkpt lat="46.25272" lon="6.02092">
        <ele>413.5</ele>
        <time>2016-07-31T16:22:51Z</time>
      </trkpt>
      <trkpt lat="46.25256" lon="6.02122">
        <ele>412.54</ele>
        <time>2016-07-31T16:22:56Z</time>
      </trkpt>
      <trkpt lat="46.25237" lon="6.02151">
        <ele>411.58</ele>
        <time>2016-07-31T16:23:01Z</time>
      </trkpt>
      <trkpt lat="46.25237" lon="6.02178">
        <ele>411.1</ele>
        <time>2016-07-31T16:23:06Z</time>
      </trkpt>
      <trkpt lat="46.25252" lon="6.02206">
        <ele>411.58</ele>
        <time>2016-07-31T16:23:11Z</time>
      </trkpt>
      <trkpt lat="46.25251" lon="6.0223">
        <ele>412.06</ele>
        <time>2016-07-31T16:23:16Z</time>
      </trkpt>
      <trkpt lat="46.25235" lon="6.02255">
        <ele>411.58</ele>
        <time>2016-07-31T16:23:21Z</time>
      </trkpt>
      <trkpt lat="46.25219" lon="6.02282">
        <ele>411.58</ele>
        <time>2016-07-31T16:23:26Z</time>
      </trkpt>
      <trkpt lat="46.25204" lon="6.02307">
        <ele>412.06</ele>
        <time>2016-07-31T16:23:31Z</time>
      </trkpt>
      <trkpt lat="46.25192" lon="6.02329">
        <ele>412.06</ele>
        <time>2016-07-31T16:23:36Z</time>
      </trkpt>
      <trkpt lat="46.2518" lon="6.02354">
        <ele>412.06</ele>
        <time>2016-07-31T16:23:41Z</time>
      </trkpt>
      <trkpt lat="46.25172" lon="6.0238">
        <ele>412.06</ele>
        <time>2016-07-31T16:23:46Z</time>
      </trkpt>
      <trkpt lat="46.2517" lon="6.02405">
        <ele>412.54</ele>
        <time>2016-07-31T16:23:51Z</time>
      </trkpt>
      <trkpt lat="46.25169" lon="6.02432">
        <ele>412.54</ele>
        <time>2016-07-31T16:23:56Z</time>
      </trkpt>
      <trkpt lat="46.25157" lon="6.02459">
        <ele>412.54</ele>
        <time>2016-07-31T16:24:01Z</time>
      </trkpt>
      <trkpt lat="46.25144" lon="6.02484">
        <ele>412.54</ele>
        <time>2016-07-31T16:24:06Z</time>
      </trkpt>
      <trkpt lat="46.25133" lon="6.02506">
        <ele>412.54</ele>
        <time>2016-07-31T16:24:11Z</time>
      </trkpt>
      <trkpt lat="46.25121" lon="6.02519">
        <ele>413.02</ele>
        <time>2016-07-31T16:24:16Z</time>
      </trkpt>
      <trkpt lat="46.25108" lon="6.02531">
        <ele>413.02</ele>
        <time>2016-07-31T16:24:21Z</time>
      </trkpt>
      <trkpt lat="46.25099" lon="6.02547">
        <ele>413.02</ele>
        <time>2016-07-31T16:24:26Z</time>
      </trkpt>
      <trkpt lat="46.25094" lon="6.02554">
        <ele>413.02</ele>
        <time>2016-07-31T16:24:31Z</time>
      </trkpt>
      <trkpt lat="46.25088" lon="6.02559">
        <ele>413.5</ele>
        <time>2016-07-31T16:24:36Z</time>
      </trkpt>
      <trkpt lat="46.25076" lon="6.02554">
        <ele>413.5</ele>
        <time>2016-07-31T16:24:41Z</time>
      </trkpt>
      <trkpt lat="46.25064" lon="6.02549">
        <ele>413.5</ele>
        <time>2016-07-31T16:24:46Z</time>
      </trkpt>
      <trkpt lat="46.25048" lon="6.02544">
        <ele>413.5</ele>
        <time>2016-07-31T16:24:51Z</time>
      </trkpt>
      <trkpt lat="46.2503" lon="6.02537">
        <ele>413.98</ele>
        <time>2016-07-31T16:24:56Z</time>
      </trkpt>
      <trkpt lat="46.25012" lon="6.0253">
        <ele>413.98</ele>
        <time>2016-07-31T16:25:01Z</time>
      </trkpt>
      <trkpt lat="46.24991" lon="6.02522">
        <ele>413.98</ele>
        <time>2016-07-31T16:25:06Z</time>
      </trkpt>
      <trkpt lat="46.2497" lon="6.02512">
        <ele>413.98</ele>
        <time>2016-07-31T16:25:11Z</time>
      </trkpt>
      <trkpt lat="46.24948" lon="6.02504">
        <ele>413.98</ele>
        <time>2016-07-31T16:25:16Z</time>
      </trkpt>
      <trkpt lat="46.24924" lon="6.02495">
        <ele>413.98</ele>
        <time>2016-07-31T16:25:21Z</time>
      </trkpt>
      <trkpt lat="46.24902" lon="6.02487">
        <ele>414.47</ele>
        <time>2016-07-31T16:25:26Z</time>
      </trkpt>
      <trkpt lat="46.24879" lon="6.02478">
        <ele>413.98</ele>
        <time>2016-07-31T16:25:31Z</time>
      </trkpt>
      <trkpt lat="46.24857" lon="6.0247">
        <ele>413.98</ele>
        <time>2016-07-31T16:25:36Z</time>
      </trkpt>
      <trkpt lat="46.24833" lon="6.02461">
        <ele>413.5</ele>
        <time>2016-07-31T16:25:41Z</time>
      </trkpt>
      <trkpt lat="46.24805" lon="6.02449">
        <ele>413.02</ele>
        <time>2016-07-31T16:25:46Z</time>
      </trkpt>
      <trkpt lat="46.24777" lon="6.02438">
        <ele>413.5</ele>
        <time>2016-07-31T16:25:51Z</time>
      </trkpt>
      <trkpt lat="46.24751" lon="6.02426">
        <ele>413.02</ele>
        <time>2016-07-31T16:25:56Z</time>
      </trkpt>
      <trkpt lat="46.24728" lon="6.02418">
        <ele>414.47</ele>
        <time>2016-07-31T16:26:01Z</time>
      </trkpt>
      <trkpt lat="46.24705" lon="6.02405">
        <ele>414.47</ele>
        <time>2016-07-31T16:26:06Z</time>
      </trkpt>
      <trkpt lat="46.24685" lon="6.024">
        <ele>414.95</ele>
        <time>2016-07-31T16:26:11Z</time>
      </trkpt>
      <trkpt lat="46.24665" lon="6.02393">
        <ele>415.43</ele>
        <time>2016-07-31T16:26:16Z</time>
      </trkpt>
      <trkpt lat="46.24645" lon="6.02385">
        <ele>415.91</ele>
        <time>2016-07-31T16:26:21Z</time>
      </trkpt>
      <trkpt lat="46.24625" lon="6.02377">
        <ele>415.43</ele>
        <time>2016-07-31T16:26:26Z</time>
      </trkpt>
      <trkpt lat="46.24602" lon="6.02365">
        <ele>415.43</ele>
        <time>2016-07-31T16:26:31Z</time>
      </trkpt>
      <trkpt lat="46.24583" lon="6.02357">
        <ele>415.91</ele>
        <time>2016-07-31T16:26:36Z</time>
      </trkpt>
      <trkpt lat="46.24563" lon="6.02347">
        <ele>415.43</ele>
        <time>2016-07-31T16:26:41Z</time>
      </trkpt>
      <trkpt lat="46.24553" lon="6.02327">
        <ele>415.43</ele>
        <time>2016-07-31T16:26:46Z</time>
      </trkpt>
      <trkpt lat="46.24534" lon="6.02329">
        <ele>416.39</ele>
        <time>2016-07-31T16:26:51Z</time>
      </trkpt>
      <trkpt lat="46.24514" lon="6.02318">
        <ele>415.91</ele>
        <time>2016-07-31T16:26:56Z</time>
      </trkpt>
      <trkpt lat="46.24497" lon="6.02301">
        <ele>415.43</ele>
        <time>2016-07-31T16:27:01Z</time>
      </trkpt>
      <trkpt lat="46.24484" lon="6.02281">
        <ele>415.43</ele>
        <time>2016-07-31T16:27:06Z</time>
      </trkpt>
      <trkpt lat="46.2447" lon="6.02263">
        <ele>416.39</ele>
        <time>2016-07-31T16:27:11Z</time>
      </trkpt>
      <trkpt lat="46.24455" lon="6.02242">
        <ele>415.91</ele>
        <time>2016-07-31T16:27:16Z</time>
      </trkpt>
      <trkpt lat="46.24439" lon="6.02215">
        <ele>414.95</ele>
        <time>2016-07-31T16:27:21Z</time>
      </trkpt>
      <trkpt lat="46.24425" lon="6.02186">
        <ele>414.95</ele>
        <time>2016-07-31T16:27:26Z</time>
      </trkpt>
      <trkpt lat="46.2441" lon="6.02163">
        <ele>414.47</ele>
        <time>2016-07-31T16:27:31Z</time>
      </trkpt>
      <trkpt lat="46.24384" lon="6.0214">
        <ele>413.98</ele>
        <time>2016-07-31T16:27:36Z</time>
      </trkpt>
      <trkpt lat="46.24357" lon="6.02106">
        <ele>412.54</ele>
        <time>2016-07-31T16:27:41Z</time>
      </trkpt>
      <trkpt lat="46.2433" lon="6.02069">
        <ele>412.54</ele>
        <time>2016-07-31T16:27:46Z</time>
      </trkpt>
      <trkpt lat="46.24302" lon="6.02027">
        <ele>412.06</ele>
        <time>2016-07-31T16:27:51Z</time>
      </trkpt>
      <trkpt lat="46.24274" lon="6.01981">
        <ele>411.58</ele>
        <time>2016-07-31T16:27:56Z</time>
      </trkpt>
      <trkpt lat="46.24247" lon="6.01937">
        <ele>411.58</ele>
        <time>2016-07-31T16:28:01Z</time>
      </trkpt>
      <trkpt lat="46.24221" lon="6.01903">
        <ele>410.62</ele>
        <time>2016-07-31T16:28:06Z</time>
      </trkpt>
      <trkpt lat="46.24199" lon="6.01894">
        <ele>409.66</ele>
        <time>2016-07-31T16:28:11Z</time>
      </trkpt>
      <trkpt lat="46.24185" lon="6.01936">
        <ele>408.7</ele>
        <time>2016-07-31T16:28:16Z</time>
      </trkpt>
      <trkpt lat="46.24162" lon="6.01965">
        <ele>405.33</ele>
        <time>2016-07-31T16:28:21Z</time>
      </trkpt>
      <trkpt lat="46.24148" lon="6.01966">
        <ele>404.37</ele>
        <time>2016-07-31T16:28:26Z</time>
      </trkpt>
      <trkpt lat="46.24143" lon="6.01935">
        <ele>403.41</ele>
        <time>2016-07-31T16:28:31Z</time>
      </trkpt>
      <trkpt lat="46.24152" lon="6.01917">
        <ele>405.81</ele>
        <time>2016-07-31T16:28:36Z</time>
      </trkpt>
      <trkpt lat="46.24147" lon="6.01896">
        <ele>405.33</ele>
        <time>2016-07-31T16:28:41Z</time>
      </trkpt>
      <trkpt lat="46.24137" lon="6.01897">
        <ele>405.33</ele>
        <time>2016-07-31T16:28:46Z</time>
      </trkpt>
      <trkpt lat="46.24136" lon="6.01897">
        <ele>405.81</ele>
        <time>2016-07-31T16:28:51Z</time>
      </trkpt>
      <trkpt lat="46.24135" lon="6.01897">
        <ele>404.85</ele>
        <time>2016-07-31T16:28:56Z</time>
      </trkpt>
      <trkpt lat="46.24135" lon="6.01897">
        <ele>405.81</ele>
        <time>2016-07-31T16:29:01Z</time>
      </trkpt>
      <trkpt lat="46.24134" lon="6.01897">
        <ele>405.81</ele>
        <time>2016-07-31T16:29:06Z</time>
      </trkpt>
      <trkpt lat="46.24136" lon="6.01897">
        <ele>405.33</ele>
        <time>2016-07-31T16:29:11Z</time>
      </trkpt>
      <trkpt lat="46.24138" lon="6.01899">
        <ele>405.81</ele>
        <time>2016-07-31T16:29:16Z</time>
      </trkpt>
      <trkpt lat="46.24139" lon="6.019">
        <ele>405.33</ele>
        <time>2016-07-31T16:29:21Z</time>
      </trkpt>
      <trkpt lat="46.24139" lon="6.019">
        <ele>405.81</ele>
        <time>2016-07-31T16:29:26Z</time>
      </trkpt>
      <trkpt lat="46.24139" lon="6.01901">
        <ele>405.33</ele>
        <time>2016-07-31T16:29:31Z</time>
      </trkpt>
      <trkpt lat="46.24139" lon="6.01902">
        <ele>405.33</ele>
        <time>2016-07-31T16:29:36Z</time>
      </trkpt>
      <trkpt lat="46.24139" lon="6.01902">
        <ele>404.85</ele>
        <time>2016-07-31T16:29:41Z</time>
      </trkpt>
      <trkpt lat="46.24138" lon="6.01901">
        <ele>405.33</ele>
        <time>2016-07-31T16:29:46Z</time>
      </trkpt>
      <trkpt lat="46.24138" lon="6.019">
        <ele>405.33</ele>
        <time>2016-07-31T16:29:51Z</time>
      </trkpt>
      <trkpt lat="46.24138" lon="6.01901">
        <ele>404.85</ele>
        <time>2016-07-31T16:29:56Z</time>
      </trkpt>
      <trkpt lat="46.24137" lon="6.01903">
        <ele>405.33</ele>
        <time>2016-07-31T16:30:01Z</time>
      </trkpt>
    </trkseg>
  </trk>
</gpx>